<?xml version="1.0" encoding="UTF-8" standalone="no" ?>
<gpx xmlns="http://www.topografix.com/GPX/1/1" xmlns:xsi="http://www.w3.org/2001/XMLSchema-instance" xsi:schemaLocation="http://www.topografix.com/GPX/1/1 http://www.topografix.com/GPX/1/1/gpx.xsd" version="1.1" creator="VisuGPX - https://www.visugpx.com">
  <metadata>
    <name>Pic d'Orhy 2018 m</name>
    <desc><![CDATA[Beau sommet d'un accés rapide, une vue à 360° sur le pays basque et les sommets béarnais vers l'est. Un incontournable!!!]]></desc>
  </metadata>
  <wpt lat="43.00859" lon="-1.03009">
    <ele>1375.0410156</ele>
    <name><![CDATA[1 - Cayolar Or]]></name>
  </wpt>
  <wpt lat="43.00563" lon="-1.0194">
    <ele>1432.9599609</ele>
    <name><![CDATA[2 - Col de Tha]]></name>
  </wpt>
  <wpt lat="42.99586" lon="-1.01829">
    <ele>1765.0930176</ele>
    <name><![CDATA[3 - Zazpigain]]></name>
  </wpt>
  <wpt lat="42.98852" lon="-1.00613">
    <ele>2017.9177246</ele>
    <name><![CDATA[4 - Pic D'Orhy]]></name>
  </wpt>
  <trk>
    <name><![CDATA[Pic d'Orhy 240916]]></name>
    <trkseg>
      <trkpt lat="43.00863" lon="-1.03076">
        <ele>1291.1877441</ele>
        <time>2016-09-24T07:19:10Z</time>
      </trkpt>
      <trkpt lat="43.00863" lon="-1.03076">
        <ele>1291.1877441</ele>
        <time>2016-09-24T07:19:12Z</time>
      </trkpt>
      <trkpt lat="43.00864" lon="-1.03075">
        <ele>1292.630127</ele>
        <time>2016-09-24T07:19:44Z</time>
      </trkpt>
      <trkpt lat="43.00864" lon="-1.03074">
        <ele>1293.1105957</ele>
        <time>2016-09-24T07:19:46Z</time>
      </trkpt>
      <trkpt lat="43.00875" lon="-1.03061">
        <ele>1295.0332031</ele>
        <time>2016-09-24T07:20:01Z</time>
      </trkpt>
      <trkpt lat="43.00875" lon="-1.03056">
        <ele>1295.513916</ele>
        <time>2016-09-24T07:20:09Z</time>
      </trkpt>
      <trkpt lat="43.00874" lon="-1.03045">
        <ele>1296.9558105</ele>
        <time>2016-09-24T07:20:17Z</time>
      </trkpt>
      <trkpt lat="43.00865" lon="-1.03018">
        <ele>1300.3205566</ele>
        <time>2016-09-24T07:20:35Z</time>
      </trkpt>
      <trkpt lat="43.00864" lon="-1.03014">
        <ele>1299.8398438</ele>
        <time>2016-09-24T07:20:37Z</time>
      </trkpt>
      <trkpt lat="43.00862" lon="-1.03004">
        <ele>1300.3205566</ele>
        <time>2016-09-24T07:20:43Z</time>
      </trkpt>
      <trkpt lat="43.00861" lon="-1.02999">
        <ele>1299.8398438</ele>
        <time>2016-09-24T07:20:46Z</time>
      </trkpt>
      <trkpt lat="43.00861" lon="-1.02992">
        <ele>1300.8010254</ele>
        <time>2016-09-24T07:20:51Z</time>
      </trkpt>
      <trkpt lat="43.00859" lon="-1.02966">
        <ele>1304.1657715</ele>
        <time>2016-09-24T07:21:07Z</time>
      </trkpt>
      <trkpt lat="43.00858" lon="-1.02962">
        <ele>1305.1269531</ele>
        <time>2016-09-24T07:21:09Z</time>
      </trkpt>
      <trkpt lat="43.00859" lon="-1.02959">
        <ele>1305.1269531</ele>
        <time>2016-09-24T07:21:11Z</time>
      </trkpt>
      <trkpt lat="43.00858" lon="-1.0295">
        <ele>1306.5688477</ele>
        <time>2016-09-24T07:21:17Z</time>
      </trkpt>
      <trkpt lat="43.00858" lon="-1.02934">
        <ele>1309.453125</ele>
        <time>2016-09-24T07:21:28Z</time>
      </trkpt>
      <trkpt lat="43.0086" lon="-1.02924">
        <ele>1312.3369141</ele>
        <time>2016-09-24T07:21:37Z</time>
      </trkpt>
      <trkpt lat="43.00859" lon="-1.02915">
        <ele>1314.2595215</ele>
        <time>2016-09-24T07:21:44Z</time>
      </trkpt>
      <trkpt lat="43.0086" lon="-1.02913">
        <ele>1315.2209473</ele>
        <time>2016-09-24T07:21:46Z</time>
      </trkpt>
      <trkpt lat="43.00861" lon="-1.02909">
        <ele>1315.7016602</ele>
        <time>2016-09-24T07:21:49Z</time>
      </trkpt>
      <trkpt lat="43.00865" lon="-1.02901">
        <ele>1317.6240234</ele>
        <time>2016-09-24T07:21:57Z</time>
      </trkpt>
      <trkpt lat="43.00868" lon="-1.02896">
        <ele>1318.5854492</ele>
        <time>2016-09-24T07:22:02Z</time>
      </trkpt>
      <trkpt lat="43.00869" lon="-1.02885">
        <ele>1321.9499512</ele>
        <time>2016-09-24T07:22:11Z</time>
      </trkpt>
      <trkpt lat="43.0087" lon="-1.02883">
        <ele>1322.4306641</ele>
        <time>2016-09-24T07:22:14Z</time>
      </trkpt>
      <trkpt lat="43.00874" lon="-1.0287">
        <ele>1325.7954102</ele>
        <time>2016-09-24T07:22:26Z</time>
      </trkpt>
      <trkpt lat="43.00879" lon="-1.02857">
        <ele>1328.1987305</ele>
        <time>2016-09-24T07:22:39Z</time>
      </trkpt>
      <trkpt lat="43.0088" lon="-1.02856">
        <ele>1329.1599121</ele>
        <time>2016-09-24T07:22:40Z</time>
      </trkpt>
      <trkpt lat="43.00883" lon="-1.02851">
        <ele>1330.6020508</ele>
        <time>2016-09-24T07:22:46Z</time>
      </trkpt>
      <trkpt lat="43.00889" lon="-1.02839">
        <ele>1334.4472656</ele>
        <time>2016-09-24T07:23:00Z</time>
      </trkpt>
      <trkpt lat="43.00895" lon="-1.02827">
        <ele>1337.8117676</ele>
        <time>2016-09-24T07:23:12Z</time>
      </trkpt>
      <trkpt lat="43.00896" lon="-1.02816">
        <ele>1340.6958008</ele>
        <time>2016-09-24T07:23:22Z</time>
      </trkpt>
      <trkpt lat="43.00894" lon="-1.02804">
        <ele>1344.0605469</ele>
        <time>2016-09-24T07:23:33Z</time>
      </trkpt>
      <trkpt lat="43.00898" lon="-1.02792">
        <ele>1346.9443359</ele>
        <time>2016-09-24T07:23:46Z</time>
      </trkpt>
      <trkpt lat="43.00899" lon="-1.02777">
        <ele>1349.8283691</ele>
        <time>2016-09-24T07:24:01Z</time>
      </trkpt>
      <trkpt lat="43.009" lon="-1.02772">
        <ele>1351.7509766</ele>
        <time>2016-09-24T07:24:06Z</time>
      </trkpt>
      <trkpt lat="43.00902" lon="-1.02753">
        <ele>1355.1154785</ele>
        <time>2016-09-24T07:24:23Z</time>
      </trkpt>
      <trkpt lat="43.00903" lon="-1.02752">
        <ele>1355.5961914</ele>
        <time>2016-09-24T07:24:24Z</time>
      </trkpt>
      <trkpt lat="43.00903" lon="-1.02734">
        <ele>1358.4802246</ele>
        <time>2016-09-24T07:24:39Z</time>
      </trkpt>
      <trkpt lat="43.00903" lon="-1.02722">
        <ele>1361.8449707</ele>
        <time>2016-09-24T07:24:51Z</time>
      </trkpt>
      <trkpt lat="43.009" lon="-1.02706">
        <ele>1364.7287598</ele>
        <time>2016-09-24T07:25:07Z</time>
      </trkpt>
      <trkpt lat="43.00886" lon="-1.0267">
        <ele>1367.6125488</ele>
        <time>2016-09-24T07:25:34Z</time>
      </trkpt>
      <trkpt lat="43.00877" lon="-1.02654">
        <ele>1368.0932617</ele>
        <time>2016-09-24T07:25:48Z</time>
      </trkpt>
      <trkpt lat="43.00871" lon="-1.02628">
        <ele>1371.4577637</ele>
        <time>2016-09-24T07:26:07Z</time>
      </trkpt>
      <trkpt lat="43.00864" lon="-1.02605">
        <ele>1374.342041</ele>
        <time>2016-09-24T07:26:26Z</time>
      </trkpt>
      <trkpt lat="43.00864" lon="-1.02601">
        <ele>1375.3032227</ele>
        <time>2016-09-24T07:26:29Z</time>
      </trkpt>
      <trkpt lat="43.00862" lon="-1.0258">
        <ele>1376.7453613</ele>
        <time>2016-09-24T07:26:44Z</time>
      </trkpt>
      <trkpt lat="43.00858" lon="-1.02556">
        <ele>1377.706543</ele>
        <time>2016-09-24T07:27:02Z</time>
      </trkpt>
      <trkpt lat="43.00857" lon="-1.02529">
        <ele>1381.0712891</ele>
        <time>2016-09-24T07:27:21Z</time>
      </trkpt>
      <trkpt lat="43.00858" lon="-1.02506">
        <ele>1382.9936523</ele>
        <time>2016-09-24T07:27:37Z</time>
      </trkpt>
      <trkpt lat="43.00859" lon="-1.02469">
        <ele>1385.3969727</ele>
        <time>2016-09-24T07:28:01Z</time>
      </trkpt>
      <trkpt lat="43.0086" lon="-1.02456">
        <ele>1387.3195801</ele>
        <time>2016-09-24T07:28:10Z</time>
      </trkpt>
      <trkpt lat="43.00861" lon="-1.02436">
        <ele>1389.2424316</ele>
        <time>2016-09-24T07:28:25Z</time>
      </trkpt>
      <trkpt lat="43.00859" lon="-1.02408">
        <ele>1390.6843262</ele>
        <time>2016-09-24T07:28:45Z</time>
      </trkpt>
      <trkpt lat="43.00858" lon="-1.02402">
        <ele>1391.1650391</ele>
        <time>2016-09-24T07:28:50Z</time>
      </trkpt>
      <trkpt lat="43.00857" lon="-1.02398">
        <ele>1391.645752</ele>
        <time>2016-09-24T07:29:06Z</time>
      </trkpt>
      <trkpt lat="43.00857" lon="-1.02391">
        <ele>1393.5683594</ele>
        <time>2016-09-24T07:30:12Z</time>
      </trkpt>
      <trkpt lat="43.00855" lon="-1.02356">
        <ele>1393.0876465</ele>
        <time>2016-09-24T07:30:36Z</time>
      </trkpt>
      <trkpt lat="43.00853" lon="-1.02342">
        <ele>1393.5683594</ele>
        <time>2016-09-24T07:30:45Z</time>
      </trkpt>
      <trkpt lat="43.00851" lon="-1.02338">
        <ele>1394.0490723</ele>
        <time>2016-09-24T07:30:48Z</time>
      </trkpt>
      <trkpt lat="43.00847" lon="-1.02311">
        <ele>1395.4909668</ele>
        <time>2016-09-24T07:31:06Z</time>
      </trkpt>
      <trkpt lat="43.00828" lon="-1.02292">
        <ele>1394.529541</ele>
        <time>2016-09-24T07:31:24Z</time>
      </trkpt>
      <trkpt lat="43.00815" lon="-1.02279">
        <ele>1392.1264648</ele>
        <time>2016-09-24T07:31:37Z</time>
      </trkpt>
      <trkpt lat="43.0079" lon="-1.02254">
        <ele>1389.2424316</ele>
        <time>2016-09-24T07:32:01Z</time>
      </trkpt>
      <trkpt lat="43.00773" lon="-1.0223">
        <ele>1386.8388672</ele>
        <time>2016-09-24T07:32:21Z</time>
      </trkpt>
      <trkpt lat="43.00755" lon="-1.02208">
        <ele>1383.4743652</ele>
        <time>2016-09-24T07:32:41Z</time>
      </trkpt>
      <trkpt lat="43.00735" lon="-1.02187">
        <ele>1382.0324707</ele>
        <time>2016-09-24T07:33:02Z</time>
      </trkpt>
      <trkpt lat="43.00729" lon="-1.02177">
        <ele>1382.0324707</ele>
        <time>2016-09-24T07:33:13Z</time>
      </trkpt>
      <trkpt lat="43.00708" lon="-1.02145">
        <ele>1381.5517578</ele>
        <time>2016-09-24T07:33:38Z</time>
      </trkpt>
      <trkpt lat="43.00699" lon="-1.02126">
        <ele>1382.9936523</ele>
        <time>2016-09-24T07:33:53Z</time>
      </trkpt>
      <trkpt lat="43.00683" lon="-1.02097">
        <ele>1382.9936523</ele>
        <time>2016-09-24T07:34:15Z</time>
      </trkpt>
      <trkpt lat="43.00668" lon="-1.02065">
        <ele>1383.9550781</ele>
        <time>2016-09-24T07:34:39Z</time>
      </trkpt>
      <trkpt lat="43.00665" lon="-1.02059">
        <ele>1383.9550781</ele>
        <time>2016-09-24T07:34:43Z</time>
      </trkpt>
      <trkpt lat="43.00643" lon="-1.02027">
        <ele>1383.9550781</ele>
        <time>2016-09-24T07:35:10Z</time>
      </trkpt>
      <trkpt lat="43.00629" lon="-1.02009">
        <ele>1383.9550781</ele>
        <time>2016-09-24T07:35:25Z</time>
      </trkpt>
      <trkpt lat="43.00628" lon="-1.02005">
        <ele>1384.435791</ele>
        <time>2016-09-24T07:35:28Z</time>
      </trkpt>
      <trkpt lat="43.00604" lon="-1.01988">
        <ele>1384.9165039</ele>
        <time>2016-09-24T07:35:49Z</time>
      </trkpt>
      <trkpt lat="43.00588" lon="-1.01978">
        <ele>1385.3969727</ele>
        <time>2016-09-24T07:36:04Z</time>
      </trkpt>
      <trkpt lat="43.00586" lon="-1.01975">
        <ele>1385.3969727</ele>
        <time>2016-09-24T07:36:11Z</time>
      </trkpt>
      <trkpt lat="43.00561" lon="-1.01968">
        <ele>1388.28125</ele>
        <time>2016-09-24T07:36:35Z</time>
      </trkpt>
      <trkpt lat="43.00543" lon="-1.01965">
        <ele>1391.645752</ele>
        <time>2016-09-24T07:36:53Z</time>
      </trkpt>
      <trkpt lat="43.0053" lon="-1.01961">
        <ele>1394.529541</ele>
        <time>2016-09-24T07:37:05Z</time>
      </trkpt>
      <trkpt lat="43.0052" lon="-1.01959">
        <ele>1397.4135742</ele>
        <time>2016-09-24T07:37:17Z</time>
      </trkpt>
      <trkpt lat="43.0051" lon="-1.01959">
        <ele>1399.8168945</ele>
        <time>2016-09-24T07:37:28Z</time>
      </trkpt>
      <trkpt lat="43.00506" lon="-1.01959">
        <ele>1401.2587891</ele>
        <time>2016-09-24T07:37:33Z</time>
      </trkpt>
      <trkpt lat="43.00491" lon="-1.0196">
        <ele>1404.6235352</ele>
        <time>2016-09-24T07:37:52Z</time>
      </trkpt>
      <trkpt lat="43.0049" lon="-1.0196">
        <ele>1405.104248</ele>
        <time>2016-09-24T07:37:54Z</time>
      </trkpt>
      <trkpt lat="43.00481" lon="-1.01962">
        <ele>1408.46875</ele>
        <time>2016-09-24T07:38:07Z</time>
      </trkpt>
      <trkpt lat="43.00471" lon="-1.01963">
        <ele>1411.8334961</ele>
        <time>2016-09-24T07:38:20Z</time>
      </trkpt>
      <trkpt lat="43.0046" lon="-1.01964">
        <ele>1414.7172852</ele>
        <time>2016-09-24T07:38:35Z</time>
      </trkpt>
      <trkpt lat="43.00448" lon="-1.01965">
        <ele>1418.5625</ele>
        <time>2016-09-24T07:38:52Z</time>
      </trkpt>
      <trkpt lat="43.00435" lon="-1.01965">
        <ele>1421.9272461</ele>
        <time>2016-09-24T07:39:10Z</time>
      </trkpt>
      <trkpt lat="43.00425" lon="-1.01965">
        <ele>1424.8112793</ele>
        <time>2016-09-24T07:39:23Z</time>
      </trkpt>
      <trkpt lat="43.00413" lon="-1.01964">
        <ele>1428.6564941</ele>
        <time>2016-09-24T07:39:40Z</time>
      </trkpt>
      <trkpt lat="43.00404" lon="-1.01962">
        <ele>1432.0209961</ele>
        <time>2016-09-24T07:39:55Z</time>
      </trkpt>
      <trkpt lat="43.00403" lon="-1.01961">
        <ele>1432.0209961</ele>
        <time>2016-09-24T07:39:56Z</time>
      </trkpt>
      <trkpt lat="43.00396" lon="-1.01959">
        <ele>1434.9050293</ele>
        <time>2016-09-24T07:40:09Z</time>
      </trkpt>
      <trkpt lat="43.00387" lon="-1.01954">
        <ele>1437.7890625</ele>
        <time>2016-09-24T07:40:25Z</time>
      </trkpt>
      <trkpt lat="43.00377" lon="-1.01951">
        <ele>1441.1535645</ele>
        <time>2016-09-24T07:40:39Z</time>
      </trkpt>
      <trkpt lat="43.00367" lon="-1.01946">
        <ele>1444.5180664</ele>
        <time>2016-09-24T07:40:54Z</time>
      </trkpt>
      <trkpt lat="43.00349" lon="-1.0194">
        <ele>1447.4020996</ele>
        <time>2016-09-24T07:41:17Z</time>
      </trkpt>
      <trkpt lat="43.00335" lon="-1.01935">
        <ele>1450.7666016</ele>
        <time>2016-09-24T07:41:34Z</time>
      </trkpt>
      <trkpt lat="43.00319" lon="-1.01931">
        <ele>1450.2861328</ele>
        <time>2016-09-24T07:41:56Z</time>
      </trkpt>
      <trkpt lat="43.00318" lon="-1.01931">
        <ele>1450.2861328</ele>
        <time>2016-09-24T07:42:10Z</time>
      </trkpt>
      <trkpt lat="43.00319" lon="-1.01932">
        <ele>1450.7666016</ele>
        <time>2016-09-24T07:42:55Z</time>
      </trkpt>
      <trkpt lat="43.00319" lon="-1.01932">
        <ele>1454.1315918</ele>
        <time>2016-09-24T07:42:56Z</time>
      </trkpt>
      <trkpt lat="43.00319" lon="-1.01932">
        <ele>1454.1315918</ele>
        <time>2016-09-24T07:42:57Z</time>
      </trkpt>
      <trkpt lat="43.00319" lon="-1.01932">
        <ele>1452.6894531</ele>
        <time>2016-09-24T07:42:59Z</time>
      </trkpt>
      <trkpt lat="43.00306" lon="-1.01932">
        <ele>1453.6508789</ele>
        <time>2016-09-24T07:43:26Z</time>
      </trkpt>
      <trkpt lat="43.003" lon="-1.01934">
        <ele>1453.6508789</ele>
        <time>2016-09-24T07:43:32Z</time>
      </trkpt>
      <trkpt lat="43.00282" lon="-1.01934">
        <ele>1457.0153809</ele>
        <time>2016-09-24T07:43:49Z</time>
      </trkpt>
      <trkpt lat="43.0027" lon="-1.01935">
        <ele>1460.8605957</ele>
        <time>2016-09-24T07:44:05Z</time>
      </trkpt>
      <trkpt lat="43.00266" lon="-1.01935">
        <ele>1462.3024902</ele>
        <time>2016-09-24T07:44:11Z</time>
      </trkpt>
      <trkpt lat="43.00254" lon="-1.01937">
        <ele>1465.6672363</ele>
        <time>2016-09-24T07:44:28Z</time>
      </trkpt>
      <trkpt lat="43.00247" lon="-1.01936">
        <ele>1468.5512695</ele>
        <time>2016-09-24T07:44:41Z</time>
      </trkpt>
      <trkpt lat="43.00237" lon="-1.01936">
        <ele>1471.9157715</ele>
        <time>2016-09-24T07:44:56Z</time>
      </trkpt>
      <trkpt lat="43.00231" lon="-1.01936">
        <ele>1475.2802734</ele>
        <time>2016-09-24T07:45:08Z</time>
      </trkpt>
      <trkpt lat="43.00222" lon="-1.01935">
        <ele>1478.1643066</ele>
        <time>2016-09-24T07:45:25Z</time>
      </trkpt>
      <trkpt lat="43.00215" lon="-1.01935">
        <ele>1481.0483398</ele>
        <time>2016-09-24T07:45:38Z</time>
      </trkpt>
      <trkpt lat="43.00207" lon="-1.01934">
        <ele>1484.4130859</ele>
        <time>2016-09-24T07:45:53Z</time>
      </trkpt>
      <trkpt lat="43.00199" lon="-1.01933">
        <ele>1487.296875</ele>
        <time>2016-09-24T07:46:08Z</time>
      </trkpt>
      <trkpt lat="43.00193" lon="-1.01931">
        <ele>1490.661377</ele>
        <time>2016-09-24T07:46:22Z</time>
      </trkpt>
      <trkpt lat="43.00187" lon="-1.0193">
        <ele>1494.026123</ele>
        <time>2016-09-24T07:46:39Z</time>
      </trkpt>
      <trkpt lat="43.00182" lon="-1.0193">
        <ele>1496.9099121</ele>
        <time>2016-09-24T07:46:52Z</time>
      </trkpt>
      <trkpt lat="43.00175" lon="-1.01929">
        <ele>1500.2749023</ele>
        <time>2016-09-24T07:47:09Z</time>
      </trkpt>
      <trkpt lat="43.00169" lon="-1.01928">
        <ele>1503.1586914</ele>
        <time>2016-09-24T07:47:25Z</time>
      </trkpt>
      <trkpt lat="43.00164" lon="-1.01928">
        <ele>1506.5231934</ele>
        <time>2016-09-24T07:47:40Z</time>
      </trkpt>
      <trkpt lat="43.00159" lon="-1.01926">
        <ele>1509.8876953</ele>
        <time>2016-09-24T07:47:55Z</time>
      </trkpt>
      <trkpt lat="43.00151" lon="-1.01926">
        <ele>1513.2524414</ele>
        <time>2016-09-24T07:48:14Z</time>
      </trkpt>
      <trkpt lat="43.00145" lon="-1.01924">
        <ele>1517.0979004</ele>
        <time>2016-09-24T07:48:31Z</time>
      </trkpt>
      <trkpt lat="43.0014" lon="-1.01923">
        <ele>1520.4624023</ele>
        <time>2016-09-24T07:48:43Z</time>
      </trkpt>
      <trkpt lat="43.00135" lon="-1.01922">
        <ele>1523.3464355</ele>
        <time>2016-09-24T07:48:58Z</time>
      </trkpt>
      <trkpt lat="43.00129" lon="-1.0192">
        <ele>1526.7109375</ele>
        <time>2016-09-24T07:49:14Z</time>
      </trkpt>
      <trkpt lat="43.00123" lon="-1.01925">
        <ele>1528.6335449</ele>
        <time>2016-09-24T07:49:37Z</time>
      </trkpt>
      <trkpt lat="43.00117" lon="-1.0193">
        <ele>1531.517334</ele>
        <time>2016-09-24T07:49:49Z</time>
      </trkpt>
      <trkpt lat="43.00108" lon="-1.01938">
        <ele>1534.4016113</ele>
        <time>2016-09-24T07:50:07Z</time>
      </trkpt>
      <trkpt lat="43.00102" lon="-1.01945">
        <ele>1537.7661133</ele>
        <time>2016-09-24T07:50:22Z</time>
      </trkpt>
      <trkpt lat="43.00092" lon="-1.01948">
        <ele>1541.1306152</ele>
        <time>2016-09-24T07:50:41Z</time>
      </trkpt>
      <trkpt lat="43.00086" lon="-1.01946">
        <ele>1544.4951172</ele>
        <time>2016-09-24T07:50:52Z</time>
      </trkpt>
      <trkpt lat="43.00073" lon="-1.01956">
        <ele>1546.8984375</ele>
        <time>2016-09-24T07:51:14Z</time>
      </trkpt>
      <trkpt lat="43.00063" lon="-1.0196">
        <ele>1548.8212891</ele>
        <time>2016-09-24T07:51:35Z</time>
      </trkpt>
      <trkpt lat="43.0005" lon="-1.01968">
        <ele>1550.7438965</ele>
        <time>2016-09-24T07:51:51Z</time>
      </trkpt>
      <trkpt lat="43.00038" lon="-1.01972">
        <ele>1554.1086426</ele>
        <time>2016-09-24T07:52:05Z</time>
      </trkpt>
      <trkpt lat="43.00019" lon="-1.01977">
        <ele>1555.0698242</ele>
        <time>2016-09-24T07:52:29Z</time>
      </trkpt>
      <trkpt lat="43.00007" lon="-1.01981">
        <ele>1555.0698242</ele>
        <time>2016-09-24T07:52:44Z</time>
      </trkpt>
      <trkpt lat="43.00003" lon="-1.01982">
        <ele>1557.4731445</ele>
        <time>2016-09-24T07:52:49Z</time>
      </trkpt>
      <trkpt lat="42.99991" lon="-1.01987">
        <ele>1560.8376465</ele>
        <time>2016-09-24T07:53:02Z</time>
      </trkpt>
      <trkpt lat="42.99982" lon="-1.01987">
        <ele>1564.2023926</ele>
        <time>2016-09-24T07:53:11Z</time>
      </trkpt>
      <trkpt lat="42.9998" lon="-1.01988">
        <ele>1564.2023926</ele>
        <time>2016-09-24T07:53:12Z</time>
      </trkpt>
      <trkpt lat="42.99967" lon="-1.01992">
        <ele>1567.0864258</ele>
        <time>2016-09-24T07:53:26Z</time>
      </trkpt>
      <trkpt lat="42.99944" lon="-1.01998">
        <ele>1569.0090332</ele>
        <time>2016-09-24T07:53:53Z</time>
      </trkpt>
      <trkpt lat="42.99941" lon="-1.02">
        <ele>1571.4121094</ele>
        <time>2016-09-24T07:54:00Z</time>
      </trkpt>
      <trkpt lat="42.99931" lon="-1.02005">
        <ele>1574.7768555</ele>
        <time>2016-09-24T07:54:16Z</time>
      </trkpt>
      <trkpt lat="42.99926" lon="-1.02011">
        <ele>1577.6606445</ele>
        <time>2016-09-24T07:54:27Z</time>
      </trkpt>
      <trkpt lat="42.99919" lon="-1.02006">
        <ele>1581.0256348</ele>
        <time>2016-09-24T07:54:41Z</time>
      </trkpt>
      <trkpt lat="42.99903" lon="-1.01998">
        <ele>1584.3901367</ele>
        <time>2016-09-24T07:55:07Z</time>
      </trkpt>
      <trkpt lat="42.99891" lon="-1.01997">
        <ele>1587.7546387</ele>
        <time>2016-09-24T07:55:23Z</time>
      </trkpt>
      <trkpt lat="42.99881" lon="-1.01997">
        <ele>1591.5998535</ele>
        <time>2016-09-24T07:55:40Z</time>
      </trkpt>
      <trkpt lat="42.99869" lon="-1.01994">
        <ele>1594.9643555</ele>
        <time>2016-09-24T07:56:01Z</time>
      </trkpt>
      <trkpt lat="42.99858" lon="-1.01986">
        <ele>1598.3291016</ele>
        <time>2016-09-24T07:56:20Z</time>
      </trkpt>
      <trkpt lat="42.99848" lon="-1.01986">
        <ele>1601.6938477</ele>
        <time>2016-09-24T07:56:35Z</time>
      </trkpt>
      <trkpt lat="42.99831" lon="-1.01992">
        <ele>1605.0583496</ele>
        <time>2016-09-24T07:56:58Z</time>
      </trkpt>
      <trkpt lat="42.99822" lon="-1.01995">
        <ele>1606.0195313</ele>
        <time>2016-09-24T07:57:19Z</time>
      </trkpt>
      <trkpt lat="42.99813" lon="-1.02002">
        <ele>1609.3842773</ele>
        <time>2016-09-24T07:57:34Z</time>
      </trkpt>
      <trkpt lat="42.99808" lon="-1.0201">
        <ele>1611.3068848</ele>
        <time>2016-09-24T07:57:45Z</time>
      </trkpt>
      <trkpt lat="42.998" lon="-1.02018">
        <ele>1613.7102051</ele>
        <time>2016-09-24T07:58:03Z</time>
      </trkpt>
      <trkpt lat="42.99795" lon="-1.02022">
        <ele>1616.5942383</ele>
        <time>2016-09-24T07:58:14Z</time>
      </trkpt>
      <trkpt lat="42.99789" lon="-1.0203">
        <ele>1618.9975586</ele>
        <time>2016-09-24T07:58:32Z</time>
      </trkpt>
      <trkpt lat="42.99784" lon="-1.02037">
        <ele>1621.8813477</ele>
        <time>2016-09-24T07:58:46Z</time>
      </trkpt>
      <trkpt lat="42.99777" lon="-1.02049">
        <ele>1625.7265625</ele>
        <time>2016-09-24T07:59:06Z</time>
      </trkpt>
      <trkpt lat="42.99773" lon="-1.02052">
        <ele>1628.6108398</ele>
        <time>2016-09-24T07:59:19Z</time>
      </trkpt>
      <trkpt lat="42.99767" lon="-1.02062">
        <ele>1632.4560547</ele>
        <time>2016-09-24T07:59:36Z</time>
      </trkpt>
      <trkpt lat="42.9976" lon="-1.02072">
        <ele>1635.3398438</ele>
        <time>2016-09-24T07:59:57Z</time>
      </trkpt>
      <trkpt lat="42.99755" lon="-1.02078">
        <ele>1637.7431641</ele>
        <time>2016-09-24T08:00:11Z</time>
      </trkpt>
      <trkpt lat="42.99751" lon="-1.02087">
        <ele>1640.1464844</ele>
        <time>2016-09-24T08:00:25Z</time>
      </trkpt>
      <trkpt lat="42.99746" lon="-1.02094">
        <ele>1642.0690918</ele>
        <time>2016-09-24T08:00:41Z</time>
      </trkpt>
      <trkpt lat="42.99743" lon="-1.02099">
        <ele>1646.3952637</ele>
        <time>2016-09-24T08:00:50Z</time>
      </trkpt>
      <trkpt lat="42.99742" lon="-1.02099">
        <ele>1646.3952637</ele>
        <time>2016-09-24T08:00:51Z</time>
      </trkpt>
      <trkpt lat="42.99736" lon="-1.02106">
        <ele>1649.2790527</ele>
        <time>2016-09-24T08:01:15Z</time>
      </trkpt>
      <trkpt lat="42.99731" lon="-1.02114">
        <ele>1650.7209473</ele>
        <time>2016-09-24T08:01:29Z</time>
      </trkpt>
      <trkpt lat="42.9973" lon="-1.02115">
        <ele>1652.1628418</ele>
        <time>2016-09-24T08:01:31Z</time>
      </trkpt>
      <trkpt lat="42.99726" lon="-1.0212">
        <ele>1653.6049805</ele>
        <time>2016-09-24T08:01:41Z</time>
      </trkpt>
      <trkpt lat="42.99725" lon="-1.02121">
        <ele>1655.046875</ele>
        <time>2016-09-24T08:01:43Z</time>
      </trkpt>
      <trkpt lat="42.99724" lon="-1.02122">
        <ele>1656.9694824</ele>
        <time>2016-09-24T08:01:45Z</time>
      </trkpt>
      <trkpt lat="42.99717" lon="-1.02129">
        <ele>1657.4501953</ele>
        <time>2016-09-24T08:01:59Z</time>
      </trkpt>
      <trkpt lat="42.99714" lon="-1.02129">
        <ele>1659.8532715</ele>
        <time>2016-09-24T08:02:07Z</time>
      </trkpt>
      <trkpt lat="42.99709" lon="-1.02133">
        <ele>1662.7375488</ele>
        <time>2016-09-24T08:02:15Z</time>
      </trkpt>
      <trkpt lat="42.99707" lon="-1.02135">
        <ele>1659.8532715</ele>
        <time>2016-09-24T08:02:17Z</time>
      </trkpt>
      <trkpt lat="42.99705" lon="-1.02138">
        <ele>1662.2568359</ele>
        <time>2016-09-24T08:02:23Z</time>
      </trkpt>
      <trkpt lat="42.99701" lon="-1.0214">
        <ele>1665.1408691</ele>
        <time>2016-09-24T08:02:31Z</time>
      </trkpt>
      <trkpt lat="42.997" lon="-1.0214">
        <ele>1664.1794434</ele>
        <time>2016-09-24T08:02:38Z</time>
      </trkpt>
      <trkpt lat="42.99701" lon="-1.02138">
        <ele>1666.1020508</ele>
        <time>2016-09-24T08:02:40Z</time>
      </trkpt>
      <trkpt lat="42.99701" lon="-1.02137">
        <ele>1664.6601563</ele>
        <time>2016-09-24T08:02:42Z</time>
      </trkpt>
      <trkpt lat="42.99701" lon="-1.02136">
        <ele>1667.0634766</ele>
        <time>2016-09-24T08:02:44Z</time>
      </trkpt>
      <trkpt lat="42.997" lon="-1.02134">
        <ele>1664.6601563</ele>
        <time>2016-09-24T08:02:47Z</time>
      </trkpt>
      <trkpt lat="42.99702" lon="-1.02124">
        <ele>1665.621582</ele>
        <time>2016-09-24T08:03:01Z</time>
      </trkpt>
      <trkpt lat="42.99702" lon="-1.02123">
        <ele>1668.5053711</ele>
        <time>2016-09-24T08:03:03Z</time>
      </trkpt>
      <trkpt lat="42.99701" lon="-1.02119">
        <ele>1668.0246582</ele>
        <time>2016-09-24T08:03:12Z</time>
      </trkpt>
      <trkpt lat="42.99701" lon="-1.02117">
        <ele>1669.4667969</ele>
        <time>2016-09-24T08:03:14Z</time>
      </trkpt>
      <trkpt lat="42.99701" lon="-1.02112">
        <ele>1671.3891602</ele>
        <time>2016-09-24T08:03:22Z</time>
      </trkpt>
      <trkpt lat="42.99701" lon="-1.02111">
        <ele>1672.8312988</ele>
        <time>2016-09-24T08:03:24Z</time>
      </trkpt>
      <trkpt lat="42.99701" lon="-1.02109">
        <ele>1671.3891602</ele>
        <time>2016-09-24T08:03:26Z</time>
      </trkpt>
      <trkpt lat="42.99701" lon="-1.02107">
        <ele>1673.7924805</ele>
        <time>2016-09-24T08:03:29Z</time>
      </trkpt>
      <trkpt lat="42.997" lon="-1.02101">
        <ele>1674.7539063</ele>
        <time>2016-09-24T08:03:39Z</time>
      </trkpt>
      <trkpt lat="42.997" lon="-1.021">
        <ele>1672.8312988</ele>
        <time>2016-09-24T08:03:41Z</time>
      </trkpt>
      <trkpt lat="42.99698" lon="-1.02097">
        <ele>1675.234375</ele>
        <time>2016-09-24T08:03:46Z</time>
      </trkpt>
      <trkpt lat="42.99698" lon="-1.02096">
        <ele>1673.3120117</ele>
        <time>2016-09-24T08:03:48Z</time>
      </trkpt>
      <trkpt lat="42.99697" lon="-1.02095">
        <ele>1675.7150879</ele>
        <time>2016-09-24T08:03:50Z</time>
      </trkpt>
      <trkpt lat="42.99698" lon="-1.02094">
        <ele>1678.5993652</ele>
        <time>2016-09-24T08:03:52Z</time>
      </trkpt>
      <trkpt lat="42.99696" lon="-1.02089">
        <ele>1678.5993652</ele>
        <time>2016-09-24T08:04:02Z</time>
      </trkpt>
      <trkpt lat="42.99695" lon="-1.02082">
        <ele>1680.0412598</ele>
        <time>2016-09-24T08:04:13Z</time>
      </trkpt>
      <trkpt lat="42.99692" lon="-1.02075">
        <ele>1681.9638672</ele>
        <time>2016-09-24T08:04:26Z</time>
      </trkpt>
      <trkpt lat="42.99686" lon="-1.02064">
        <ele>1685.3283691</ele>
        <time>2016-09-24T08:04:48Z</time>
      </trkpt>
      <trkpt lat="42.99682" lon="-1.02061">
        <ele>1687.7316895</ele>
        <time>2016-09-24T08:04:59Z</time>
      </trkpt>
      <trkpt lat="42.99681" lon="-1.02058">
        <ele>1690.6154785</ele>
        <time>2016-09-24T08:05:10Z</time>
      </trkpt>
      <trkpt lat="42.99675" lon="-1.02051">
        <ele>1692.0578613</ele>
        <time>2016-09-24T08:05:41Z</time>
      </trkpt>
      <trkpt lat="42.99674" lon="-1.02051">
        <ele>1695.4223633</ele>
        <time>2016-09-24T08:05:45Z</time>
      </trkpt>
      <trkpt lat="42.99673" lon="-1.0205">
        <ele>1695.4223633</ele>
        <time>2016-09-24T08:05:46Z</time>
      </trkpt>
      <trkpt lat="42.99671" lon="-1.02049">
        <ele>1696.3837891</ele>
        <time>2016-09-24T08:05:52Z</time>
      </trkpt>
      <trkpt lat="42.99666" lon="-1.02047">
        <ele>1698.3061523</ele>
        <time>2016-09-24T08:06:05Z</time>
      </trkpt>
      <trkpt lat="42.99664" lon="-1.02042">
        <ele>1701.1901855</ele>
        <time>2016-09-24T08:06:16Z</time>
      </trkpt>
      <trkpt lat="42.99663" lon="-1.02042">
        <ele>1701.1901855</ele>
        <time>2016-09-24T08:06:17Z</time>
      </trkpt>
      <trkpt lat="42.99663" lon="-1.0204">
        <ele>1700.2290039</ele>
        <time>2016-09-24T08:06:19Z</time>
      </trkpt>
      <trkpt lat="42.99664" lon="-1.02037">
        <ele>1701.6708984</ele>
        <time>2016-09-24T08:06:24Z</time>
      </trkpt>
      <trkpt lat="42.99661" lon="-1.0203">
        <ele>1704.5546875</ele>
        <time>2016-09-24T08:06:39Z</time>
      </trkpt>
      <trkpt lat="42.99651" lon="-1.02028">
        <ele>1708.4001465</ele>
        <time>2016-09-24T08:06:58Z</time>
      </trkpt>
      <trkpt lat="42.99644" lon="-1.02022">
        <ele>1712.2453613</ele>
        <time>2016-09-24T08:07:15Z</time>
      </trkpt>
      <trkpt lat="42.9964" lon="-1.02013">
        <ele>1715.1293945</ele>
        <time>2016-09-24T08:07:30Z</time>
      </trkpt>
      <trkpt lat="42.9964" lon="-1.0201">
        <ele>1717.052002</ele>
        <time>2016-09-24T08:07:42Z</time>
      </trkpt>
      <trkpt lat="42.99637" lon="-1.02">
        <ele>1719.935791</ele>
        <time>2016-09-24T08:07:57Z</time>
      </trkpt>
      <trkpt lat="42.99635" lon="-1.01996">
        <ele>1722.3391113</ele>
        <time>2016-09-24T08:08:07Z</time>
      </trkpt>
      <trkpt lat="42.99635" lon="-1.01995">
        <ele>1721.3776855</ele>
        <time>2016-09-24T08:08:09Z</time>
      </trkpt>
      <trkpt lat="42.99635" lon="-1.01995">
        <ele>1718.4938965</ele>
        <time>2016-09-24T08:08:11Z</time>
      </trkpt>
      <trkpt lat="42.99635" lon="-1.01995">
        <ele>1719.935791</ele>
        <time>2016-09-24T08:08:22Z</time>
      </trkpt>
      <trkpt lat="42.99635" lon="-1.01994">
        <ele>1720.8972168</ele>
        <time>2016-09-24T08:08:54Z</time>
      </trkpt>
      <trkpt lat="42.99633" lon="-1.01988">
        <ele>1722.3391113</ele>
        <time>2016-09-24T08:09:02Z</time>
      </trkpt>
      <trkpt lat="42.99627" lon="-1.01978">
        <ele>1725.2231445</ele>
        <time>2016-09-24T08:09:21Z</time>
      </trkpt>
      <trkpt lat="42.99624" lon="-1.01971">
        <ele>1727.1459961</ele>
        <time>2016-09-24T08:09:34Z</time>
      </trkpt>
      <trkpt lat="42.99623" lon="-1.01962">
        <ele>1730.510498</ele>
        <time>2016-09-24T08:09:45Z</time>
      </trkpt>
      <trkpt lat="42.99622" lon="-1.01962">
        <ele>1730.510498</ele>
        <time>2016-09-24T08:09:46Z</time>
      </trkpt>
      <trkpt lat="42.99618" lon="-1.01952">
        <ele>1731.4716797</ele>
        <time>2016-09-24T08:10:00Z</time>
      </trkpt>
      <trkpt lat="42.99616" lon="-1.0195">
        <ele>1734.3557129</ele>
        <time>2016-09-24T08:10:05Z</time>
      </trkpt>
      <trkpt lat="42.99616" lon="-1.01949">
        <ele>1732.9135742</ele>
        <time>2016-09-24T08:10:07Z</time>
      </trkpt>
      <trkpt lat="42.99615" lon="-1.01938">
        <ele>1733.3942871</ele>
        <time>2016-09-24T08:10:21Z</time>
      </trkpt>
      <trkpt lat="42.99614" lon="-1.01927">
        <ele>1736.7587891</ele>
        <time>2016-09-24T08:10:38Z</time>
      </trkpt>
      <trkpt lat="42.99614" lon="-1.01927">
        <ele>1736.7587891</ele>
        <time>2016-09-24T08:10:39Z</time>
      </trkpt>
      <trkpt lat="42.99611" lon="-1.01918">
        <ele>1739.1621094</ele>
        <time>2016-09-24T08:10:51Z</time>
      </trkpt>
      <trkpt lat="42.99611" lon="-1.01915">
        <ele>1740.1237793</ele>
        <time>2016-09-24T08:10:55Z</time>
      </trkpt>
      <trkpt lat="42.9961" lon="-1.0191">
        <ele>1737.239502</ele>
        <time>2016-09-24T08:11:01Z</time>
      </trkpt>
      <trkpt lat="42.99608" lon="-1.01905">
        <ele>1737.239502</ele>
        <time>2016-09-24T08:11:09Z</time>
      </trkpt>
      <trkpt lat="42.99607" lon="-1.01901">
        <ele>1736.2783203</ele>
        <time>2016-09-24T08:11:12Z</time>
      </trkpt>
      <trkpt lat="42.99605" lon="-1.01893">
        <ele>1735.7976074</ele>
        <time>2016-09-24T08:11:29Z</time>
      </trkpt>
      <trkpt lat="42.99599" lon="-1.01871">
        <ele>1736.2783203</ele>
        <time>2016-09-24T08:11:50Z</time>
      </trkpt>
      <trkpt lat="42.99592" lon="-1.01855">
        <ele>1739.1621094</ele>
        <time>2016-09-24T08:12:10Z</time>
      </trkpt>
      <trkpt lat="42.99585" lon="-1.01843">
        <ele>1743.0075684</ele>
        <time>2016-09-24T08:12:25Z</time>
      </trkpt>
      <trkpt lat="42.99585" lon="-1.01842">
        <ele>1743.4882813</ele>
        <time>2016-09-24T08:12:26Z</time>
      </trkpt>
      <trkpt lat="42.99583" lon="-1.01831">
        <ele>1746.8527832</ele>
        <time>2016-09-24T08:12:40Z</time>
      </trkpt>
      <trkpt lat="42.99579" lon="-1.01826">
        <ele>1748.2946777</ele>
        <time>2016-09-24T08:12:51Z</time>
      </trkpt>
      <trkpt lat="42.99574" lon="-1.01815">
        <ele>1748.2946777</ele>
        <time>2016-09-24T08:13:08Z</time>
      </trkpt>
      <trkpt lat="42.99569" lon="-1.01803">
        <ele>1747.814209</ele>
        <time>2016-09-24T08:13:24Z</time>
      </trkpt>
      <trkpt lat="42.99563" lon="-1.01792">
        <ele>1749.2561035</ele>
        <time>2016-09-24T08:13:41Z</time>
      </trkpt>
      <trkpt lat="42.99561" lon="-1.01788">
        <ele>1747.3334961</ele>
        <time>2016-09-24T08:13:50Z</time>
      </trkpt>
      <trkpt lat="42.99557" lon="-1.01785">
        <ele>1744.4494629</ele>
        <time>2016-09-24T08:14:07Z</time>
      </trkpt>
      <trkpt lat="42.99554" lon="-1.01784">
        <ele>1740.604248</ele>
        <time>2016-09-24T08:14:32Z</time>
      </trkpt>
      <trkpt lat="42.99554" lon="-1.01784">
        <ele>1740.604248</ele>
        <time>2016-09-24T08:14:33Z</time>
      </trkpt>
      <trkpt lat="42.99552" lon="-1.01784">
        <ele>1738.2009277</ele>
        <time>2016-09-24T08:14:39Z</time>
      </trkpt>
      <trkpt lat="42.99552" lon="-1.01784">
        <ele>1740.604248</ele>
        <time>2016-09-24T08:14:41Z</time>
      </trkpt>
      <trkpt lat="42.99548" lon="-1.01776">
        <ele>1740.1237793</ele>
        <time>2016-09-24T08:15:36Z</time>
      </trkpt>
      <trkpt lat="42.99539" lon="-1.01759">
        <ele>1739.6428223</ele>
        <time>2016-09-24T08:15:53Z</time>
      </trkpt>
      <trkpt lat="42.99535" lon="-1.01751">
        <ele>1740.1237793</ele>
        <time>2016-09-24T08:16:08Z</time>
      </trkpt>
      <trkpt lat="42.99527" lon="-1.01733">
        <ele>1741.0849609</ele>
        <time>2016-09-24T08:16:28Z</time>
      </trkpt>
      <trkpt lat="42.9952" lon="-1.01724">
        <ele>1741.5656738</ele>
        <time>2016-09-24T08:16:40Z</time>
      </trkpt>
      <trkpt lat="42.99505" lon="-1.01699">
        <ele>1743.4882813</ele>
        <time>2016-09-24T08:17:02Z</time>
      </trkpt>
      <trkpt lat="42.99503" lon="-1.01692">
        <ele>1745.4108887</ele>
        <time>2016-09-24T08:17:07Z</time>
      </trkpt>
      <trkpt lat="42.99501" lon="-1.01686">
        <ele>1746.3723145</ele>
        <time>2016-09-24T08:17:15Z</time>
      </trkpt>
      <trkpt lat="42.995" lon="-1.01686">
        <ele>1749.2561035</ele>
        <time>2016-09-24T08:17:17Z</time>
      </trkpt>
      <trkpt lat="42.995" lon="-1.01684">
        <ele>1745.4108887</ele>
        <time>2016-09-24T08:17:20Z</time>
      </trkpt>
      <trkpt lat="42.995" lon="-1.01683">
        <ele>1745.4108887</ele>
        <time>2016-09-24T08:17:21Z</time>
      </trkpt>
      <trkpt lat="42.995" lon="-1.01681">
        <ele>1743.9689941</ele>
        <time>2016-09-24T08:17:23Z</time>
      </trkpt>
      <trkpt lat="42.99501" lon="-1.0167">
        <ele>1743.4882813</ele>
        <time>2016-09-24T08:17:41Z</time>
      </trkpt>
      <trkpt lat="42.99502" lon="-1.0167">
        <ele>1743.4882813</ele>
        <time>2016-09-24T08:17:42Z</time>
      </trkpt>
      <trkpt lat="42.99502" lon="-1.01667">
        <ele>1742.0463867</ele>
        <time>2016-09-24T08:17:45Z</time>
      </trkpt>
      <trkpt lat="42.99498" lon="-1.01662">
        <ele>1744.4494629</ele>
        <time>2016-09-24T08:17:59Z</time>
      </trkpt>
      <trkpt lat="42.99498" lon="-1.01662">
        <ele>1743.9689941</ele>
        <time>2016-09-24T08:18:04Z</time>
      </trkpt>
      <trkpt lat="42.99497" lon="-1.01669">
        <ele>1743.9689941</ele>
        <time>2016-09-24T08:18:22Z</time>
      </trkpt>
      <trkpt lat="42.99499" lon="-1.01673">
        <ele>1744.9301758</ele>
        <time>2016-09-24T08:18:37Z</time>
      </trkpt>
      <trkpt lat="42.99499" lon="-1.01673">
        <ele>1745.8916016</ele>
        <time>2016-09-24T08:18:41Z</time>
      </trkpt>
      <trkpt lat="42.99499" lon="-1.01673">
        <ele>1747.3334961</ele>
        <time>2016-09-24T08:18:44Z</time>
      </trkpt>
      <trkpt lat="42.99498" lon="-1.01672">
        <ele>1746.3723145</ele>
        <time>2016-09-24T08:18:47Z</time>
      </trkpt>
      <trkpt lat="42.99495" lon="-1.01669">
        <ele>1744.4494629</ele>
        <time>2016-09-24T08:18:52Z</time>
      </trkpt>
      <trkpt lat="42.99492" lon="-1.01664">
        <ele>1747.3334961</ele>
        <time>2016-09-24T08:18:58Z</time>
      </trkpt>
      <trkpt lat="42.99491" lon="-1.01663">
        <ele>1749.2561035</ele>
        <time>2016-09-24T08:18:59Z</time>
      </trkpt>
      <trkpt lat="42.99487" lon="-1.01662">
        <ele>1746.8527832</ele>
        <time>2016-09-24T08:19:03Z</time>
      </trkpt>
      <trkpt lat="42.99483" lon="-1.01662">
        <ele>1746.3723145</ele>
        <time>2016-09-24T08:19:09Z</time>
      </trkpt>
      <trkpt lat="42.99475" lon="-1.0166">
        <ele>1748.7753906</ele>
        <time>2016-09-24T08:19:19Z</time>
      </trkpt>
      <trkpt lat="42.99473" lon="-1.01659">
        <ele>1746.8527832</ele>
        <time>2016-09-24T08:19:22Z</time>
      </trkpt>
      <trkpt lat="42.99467" lon="-1.01659">
        <ele>1747.814209</ele>
        <time>2016-09-24T08:19:34Z</time>
      </trkpt>
      <trkpt lat="42.99463" lon="-1.01655">
        <ele>1747.814209</ele>
        <time>2016-09-24T08:19:41Z</time>
      </trkpt>
      <trkpt lat="42.99461" lon="-1.01653">
        <ele>1745.4108887</ele>
        <time>2016-09-24T08:19:51Z</time>
      </trkpt>
      <trkpt lat="42.99459" lon="-1.01652">
        <ele>1745.4108887</ele>
        <time>2016-09-24T08:19:57Z</time>
      </trkpt>
      <trkpt lat="42.99457" lon="-1.01652">
        <ele>1746.3723145</ele>
        <time>2016-09-24T08:20:10Z</time>
      </trkpt>
      <trkpt lat="42.99455" lon="-1.01651">
        <ele>1745.8916016</ele>
        <time>2016-09-24T08:20:24Z</time>
      </trkpt>
      <trkpt lat="42.99455" lon="-1.01651">
        <ele>1744.4494629</ele>
        <time>2016-09-24T08:20:27Z</time>
      </trkpt>
      <trkpt lat="42.99453" lon="-1.01651">
        <ele>1742.5270996</ele>
        <time>2016-09-24T08:20:50Z</time>
      </trkpt>
      <trkpt lat="42.99453" lon="-1.01651">
        <ele>1743.0075684</ele>
        <time>2016-09-24T08:21:01Z</time>
      </trkpt>
      <trkpt lat="42.99452" lon="-1.0165">
        <ele>1741.0849609</ele>
        <time>2016-09-24T08:21:18Z</time>
      </trkpt>
      <trkpt lat="42.99452" lon="-1.0165">
        <ele>1742.5270996</ele>
        <time>2016-09-24T08:21:20Z</time>
      </trkpt>
      <trkpt lat="42.99452" lon="-1.0165">
        <ele>1743.9689941</ele>
        <time>2016-09-24T08:21:22Z</time>
      </trkpt>
      <trkpt lat="42.99451" lon="-1.01651">
        <ele>1742.0463867</ele>
        <time>2016-09-24T08:21:47Z</time>
      </trkpt>
      <trkpt lat="42.99451" lon="-1.01651">
        <ele>1741.0849609</ele>
        <time>2016-09-24T08:21:51Z</time>
      </trkpt>
      <trkpt lat="42.99451" lon="-1.01652">
        <ele>1738.6816406</ele>
        <time>2016-09-24T08:21:58Z</time>
      </trkpt>
      <trkpt lat="42.99451" lon="-1.01652">
        <ele>1742.0463867</ele>
        <time>2016-09-24T08:21:59Z</time>
      </trkpt>
      <trkpt lat="42.99451" lon="-1.01652">
        <ele>1742.0463867</ele>
        <time>2016-09-24T08:22:00Z</time>
      </trkpt>
      <trkpt lat="42.99449" lon="-1.01652">
        <ele>1739.1621094</ele>
        <time>2016-09-24T08:22:13Z</time>
      </trkpt>
      <trkpt lat="42.99448" lon="-1.01654">
        <ele>1735.7976074</ele>
        <time>2016-09-24T08:22:35Z</time>
      </trkpt>
      <trkpt lat="42.99447" lon="-1.01653">
        <ele>1737.239502</ele>
        <time>2016-09-24T08:23:01Z</time>
      </trkpt>
      <trkpt lat="42.99447" lon="-1.01653">
        <ele>1734.8364258</ele>
        <time>2016-09-24T08:23:03Z</time>
      </trkpt>
      <trkpt lat="42.99445" lon="-1.01654">
        <ele>1734.8364258</ele>
        <time>2016-09-24T08:23:22Z</time>
      </trkpt>
      <trkpt lat="42.99445" lon="-1.01655">
        <ele>1731.4716797</ele>
        <time>2016-09-24T08:24:05Z</time>
      </trkpt>
      <trkpt lat="42.99442" lon="-1.01651">
        <ele>1734.8364258</ele>
        <time>2016-09-24T08:24:28Z</time>
      </trkpt>
      <trkpt lat="42.99442" lon="-1.0165">
        <ele>1734.8364258</ele>
        <time>2016-09-24T08:24:29Z</time>
      </trkpt>
      <trkpt lat="42.9944" lon="-1.01648">
        <ele>1733.875</ele>
        <time>2016-09-24T08:24:42Z</time>
      </trkpt>
      <trkpt lat="42.9944" lon="-1.01649">
        <ele>1731.9523926</ele>
        <time>2016-09-24T08:24:44Z</time>
      </trkpt>
      <trkpt lat="42.99439" lon="-1.01652">
        <ele>1731.9523926</ele>
        <time>2016-09-24T08:24:58Z</time>
      </trkpt>
      <trkpt lat="42.99434" lon="-1.01647">
        <ele>1730.0297852</ele>
        <time>2016-09-24T08:25:23Z</time>
      </trkpt>
      <trkpt lat="42.99434" lon="-1.01644">
        <ele>1728.1071777</ele>
        <time>2016-09-24T08:25:31Z</time>
      </trkpt>
      <trkpt lat="42.99432" lon="-1.0164">
        <ele>1726.6652832</ele>
        <time>2016-09-24T08:25:51Z</time>
      </trkpt>
      <trkpt lat="42.99432" lon="-1.01636">
        <ele>1724.7426758</ele>
        <time>2016-09-24T08:26:09Z</time>
      </trkpt>
      <trkpt lat="42.99433" lon="-1.01636">
        <ele>1724.7426758</ele>
        <time>2016-09-24T08:26:19Z</time>
      </trkpt>
      <trkpt lat="42.99434" lon="-1.0163">
        <ele>1721.8583984</ele>
        <time>2016-09-24T08:26:33Z</time>
      </trkpt>
      <trkpt lat="42.99435" lon="-1.01629">
        <ele>1723.3005371</ele>
        <time>2016-09-24T08:26:36Z</time>
      </trkpt>
      <trkpt lat="42.99436" lon="-1.01626">
        <ele>1719.4553223</ele>
        <time>2016-09-24T08:26:56Z</time>
      </trkpt>
      <trkpt lat="42.99435" lon="-1.01626">
        <ele>1719.4553223</ele>
        <time>2016-09-24T08:26:57Z</time>
      </trkpt>
      <trkpt lat="42.99435" lon="-1.01626">
        <ele>1722.3391113</ele>
        <time>2016-09-24T08:27:01Z</time>
      </trkpt>
      <trkpt lat="42.99435" lon="-1.01626">
        <ele>1718.9746094</ele>
        <time>2016-09-24T08:27:21Z</time>
      </trkpt>
      <trkpt lat="42.99433" lon="-1.01627">
        <ele>1718.9746094</ele>
        <time>2016-09-24T08:27:29Z</time>
      </trkpt>
      <trkpt lat="42.99432" lon="-1.01624">
        <ele>1717.052002</ele>
        <time>2016-09-24T08:27:56Z</time>
      </trkpt>
      <trkpt lat="42.99431" lon="-1.01624">
        <ele>1718.4938965</ele>
        <time>2016-09-24T08:27:58Z</time>
      </trkpt>
      <trkpt lat="42.9943" lon="-1.01624">
        <ele>1717.052002</ele>
        <time>2016-09-24T08:28:02Z</time>
      </trkpt>
      <trkpt lat="42.99429" lon="-1.01625">
        <ele>1715.1293945</ele>
        <time>2016-09-24T08:28:05Z</time>
      </trkpt>
      <trkpt lat="42.99429" lon="-1.01625">
        <ele>1713.6872559</ele>
        <time>2016-09-24T08:28:07Z</time>
      </trkpt>
      <trkpt lat="42.99427" lon="-1.01624">
        <ele>1714.1679688</ele>
        <time>2016-09-24T08:28:33Z</time>
      </trkpt>
      <trkpt lat="42.99427" lon="-1.01624">
        <ele>1716.0905762</ele>
        <time>2016-09-24T08:28:36Z</time>
      </trkpt>
      <trkpt lat="42.99428" lon="-1.01624">
        <ele>1714.6486816</ele>
        <time>2016-09-24T08:28:40Z</time>
      </trkpt>
      <trkpt lat="42.99428" lon="-1.01624">
        <ele>1712.7260742</ele>
        <time>2016-09-24T08:28:42Z</time>
      </trkpt>
      <trkpt lat="42.99428" lon="-1.01624">
        <ele>1714.6486816</ele>
        <time>2016-09-24T08:28:45Z</time>
      </trkpt>
      <trkpt lat="42.99428" lon="-1.01617">
        <ele>1712.2453613</ele>
        <time>2016-09-24T08:29:04Z</time>
      </trkpt>
      <trkpt lat="42.99425" lon="-1.01614">
        <ele>1710.8034668</ele>
        <time>2016-09-24T08:29:25Z</time>
      </trkpt>
      <trkpt lat="42.99423" lon="-1.01618">
        <ele>1710.3227539</ele>
        <time>2016-09-24T08:29:40Z</time>
      </trkpt>
      <trkpt lat="42.99422" lon="-1.0161">
        <ele>1708.8808594</ele>
        <time>2016-09-24T08:30:11Z</time>
      </trkpt>
      <trkpt lat="42.99421" lon="-1.01608">
        <ele>1705.5161133</ele>
        <time>2016-09-24T08:30:16Z</time>
      </trkpt>
      <trkpt lat="42.9942" lon="-1.01608">
        <ele>1705.5161133</ele>
        <time>2016-09-24T08:30:17Z</time>
      </trkpt>
      <trkpt lat="42.99418" lon="-1.01609">
        <ele>1706.4772949</ele>
        <time>2016-09-24T08:30:32Z</time>
      </trkpt>
      <trkpt lat="42.99417" lon="-1.01609">
        <ele>1705.5161133</ele>
        <time>2016-09-24T08:30:36Z</time>
      </trkpt>
      <trkpt lat="42.99417" lon="-1.01608">
        <ele>1703.112793</ele>
        <time>2016-09-24T08:30:38Z</time>
      </trkpt>
      <trkpt lat="42.99415" lon="-1.01608">
        <ele>1703.112793</ele>
        <time>2016-09-24T08:30:54Z</time>
      </trkpt>
      <trkpt lat="42.99414" lon="-1.01607">
        <ele>1701.6708984</ele>
        <time>2016-09-24T08:30:59Z</time>
      </trkpt>
      <trkpt lat="42.99408" lon="-1.01603">
        <ele>1698.7868652</ele>
        <time>2016-09-24T08:31:19Z</time>
      </trkpt>
      <trkpt lat="42.99408" lon="-1.01603">
        <ele>1698.3061523</ele>
        <time>2016-09-24T08:31:21Z</time>
      </trkpt>
      <trkpt lat="42.99404" lon="-1.016">
        <ele>1696.3837891</ele>
        <time>2016-09-24T08:31:29Z</time>
      </trkpt>
      <trkpt lat="42.99403" lon="-1.01599">
        <ele>1697.8256836</ele>
        <time>2016-09-24T08:31:31Z</time>
      </trkpt>
      <trkpt lat="42.99396" lon="-1.016">
        <ele>1699.748291</ele>
        <time>2016-09-24T08:31:40Z</time>
      </trkpt>
      <trkpt lat="42.99385" lon="-1.01605">
        <ele>1700.2290039</ele>
        <time>2016-09-24T08:31:55Z</time>
      </trkpt>
      <trkpt lat="42.9938" lon="-1.01607">
        <ele>1701.6708984</ele>
        <time>2016-09-24T08:32:01Z</time>
      </trkpt>
      <trkpt lat="42.99377" lon="-1.01608">
        <ele>1703.112793</ele>
        <time>2016-09-24T08:32:05Z</time>
      </trkpt>
      <trkpt lat="42.99366" lon="-1.01611">
        <ele>1706.4772949</ele>
        <time>2016-09-24T08:32:21Z</time>
      </trkpt>
      <trkpt lat="42.99357" lon="-1.01608">
        <ele>1710.3227539</ele>
        <time>2016-09-24T08:32:38Z</time>
      </trkpt>
      <trkpt lat="42.99357" lon="-1.01609">
        <ele>1710.3227539</ele>
        <time>2016-09-24T08:32:39Z</time>
      </trkpt>
      <trkpt lat="42.99356" lon="-1.01609">
        <ele>1709.3615723</ele>
        <time>2016-09-24T08:32:41Z</time>
      </trkpt>
      <trkpt lat="42.9935" lon="-1.01607">
        <ele>1712.2453613</ele>
        <time>2016-09-24T08:32:54Z</time>
      </trkpt>
      <trkpt lat="42.9934" lon="-1.01603">
        <ele>1714.1679688</ele>
        <time>2016-09-24T08:33:13Z</time>
      </trkpt>
      <trkpt lat="42.99338" lon="-1.01595">
        <ele>1717.052002</ele>
        <time>2016-09-24T08:33:35Z</time>
      </trkpt>
      <trkpt lat="42.99332" lon="-1.01589">
        <ele>1720.4165039</ele>
        <time>2016-09-24T08:34:00Z</time>
      </trkpt>
      <trkpt lat="42.99328" lon="-1.01584">
        <ele>1723.3005371</ele>
        <time>2016-09-24T08:34:15Z</time>
      </trkpt>
      <trkpt lat="42.99323" lon="-1.01578">
        <ele>1726.6652832</ele>
        <time>2016-09-24T08:34:33Z</time>
      </trkpt>
      <trkpt lat="42.99319" lon="-1.01571">
        <ele>1728.5878906</ele>
        <time>2016-09-24T08:34:50Z</time>
      </trkpt>
      <trkpt lat="42.99313" lon="-1.01563">
        <ele>1730.9912109</ele>
        <time>2016-09-24T08:35:10Z</time>
      </trkpt>
      <trkpt lat="42.99312" lon="-1.01563">
        <ele>1732.4331055</ele>
        <time>2016-09-24T08:35:13Z</time>
      </trkpt>
      <trkpt lat="42.9931" lon="-1.01562">
        <ele>1736.7587891</ele>
        <time>2016-09-24T08:35:24Z</time>
      </trkpt>
      <trkpt lat="42.9931" lon="-1.01563">
        <ele>1736.7587891</ele>
        <time>2016-09-24T08:35:25Z</time>
      </trkpt>
      <trkpt lat="42.9931" lon="-1.01562">
        <ele>1735.7976074</ele>
        <time>2016-09-24T08:35:29Z</time>
      </trkpt>
      <trkpt lat="42.9931" lon="-1.01562">
        <ele>1738.2009277</ele>
        <time>2016-09-24T08:35:32Z</time>
      </trkpt>
      <trkpt lat="42.9931" lon="-1.01562">
        <ele>1735.7976074</ele>
        <time>2016-09-24T08:35:34Z</time>
      </trkpt>
      <trkpt lat="42.9931" lon="-1.01562">
        <ele>1739.1621094</ele>
        <time>2016-09-24T08:35:35Z</time>
      </trkpt>
      <trkpt lat="42.9931" lon="-1.01562">
        <ele>1739.1621094</ele>
        <time>2016-09-24T08:35:36Z</time>
      </trkpt>
      <trkpt lat="42.99309" lon="-1.01558">
        <ele>1736.7587891</ele>
        <time>2016-09-24T08:35:46Z</time>
      </trkpt>
      <trkpt lat="42.9931" lon="-1.01547">
        <ele>1737.239502</ele>
        <time>2016-09-24T08:36:02Z</time>
      </trkpt>
      <trkpt lat="42.99309" lon="-1.01543">
        <ele>1737.239502</ele>
        <time>2016-09-24T08:36:11Z</time>
      </trkpt>
      <trkpt lat="42.99307" lon="-1.01533">
        <ele>1739.1621094</ele>
        <time>2016-09-24T08:36:22Z</time>
      </trkpt>
      <trkpt lat="42.9931" lon="-1.01519">
        <ele>1742.0463867</ele>
        <time>2016-09-24T08:36:38Z</time>
      </trkpt>
      <trkpt lat="42.99312" lon="-1.0151">
        <ele>1745.8916016</ele>
        <time>2016-09-24T08:36:48Z</time>
      </trkpt>
      <trkpt lat="42.99312" lon="-1.01509">
        <ele>1745.8916016</ele>
        <time>2016-09-24T08:36:49Z</time>
      </trkpt>
      <trkpt lat="42.99312" lon="-1.01501">
        <ele>1744.9301758</ele>
        <time>2016-09-24T08:37:03Z</time>
      </trkpt>
      <trkpt lat="42.9931" lon="-1.01488">
        <ele>1747.3334961</ele>
        <time>2016-09-24T08:37:58Z</time>
      </trkpt>
      <trkpt lat="42.9931" lon="-1.01487">
        <ele>1747.3334961</ele>
        <time>2016-09-24T08:37:59Z</time>
      </trkpt>
      <trkpt lat="42.99306" lon="-1.01465">
        <ele>1748.7753906</ele>
        <time>2016-09-24T08:38:17Z</time>
      </trkpt>
      <trkpt lat="42.99305" lon="-1.01462">
        <ele>1749.2561035</ele>
        <time>2016-09-24T08:38:20Z</time>
      </trkpt>
      <trkpt lat="42.99301" lon="-1.01444">
        <ele>1753.1013184</ele>
        <time>2016-09-24T08:38:38Z</time>
      </trkpt>
      <trkpt lat="42.99302" lon="-1.01433">
        <ele>1755.5046387</ele>
        <time>2016-09-24T08:38:53Z</time>
      </trkpt>
      <trkpt lat="42.993" lon="-1.0142">
        <ele>1758.8693848</ele>
        <time>2016-09-24T08:39:07Z</time>
      </trkpt>
      <trkpt lat="42.99295" lon="-1.01404">
        <ele>1761.753418</ele>
        <time>2016-09-24T08:39:26Z</time>
      </trkpt>
      <trkpt lat="42.9929" lon="-1.01384">
        <ele>1763.6757813</ele>
        <time>2016-09-24T08:39:46Z</time>
      </trkpt>
      <trkpt lat="42.99288" lon="-1.01368">
        <ele>1767.0405273</ele>
        <time>2016-09-24T08:40:04Z</time>
      </trkpt>
      <trkpt lat="42.99284" lon="-1.01348">
        <ele>1768.9631348</ele>
        <time>2016-09-24T08:40:24Z</time>
      </trkpt>
      <trkpt lat="42.99282" lon="-1.01337">
        <ele>1771.8469238</ele>
        <time>2016-09-24T08:40:40Z</time>
      </trkpt>
      <trkpt lat="42.99277" lon="-1.01324">
        <ele>1775.2116699</ele>
        <time>2016-09-24T08:40:57Z</time>
      </trkpt>
      <trkpt lat="42.99274" lon="-1.01316">
        <ele>1778.576416</ele>
        <time>2016-09-24T08:41:10Z</time>
      </trkpt>
      <trkpt lat="42.99267" lon="-1.01302">
        <ele>1780.9797363</ele>
        <time>2016-09-24T08:41:31Z</time>
      </trkpt>
      <trkpt lat="42.9926" lon="-1.0129">
        <ele>1784.3442383</ele>
        <time>2016-09-24T08:41:46Z</time>
      </trkpt>
      <trkpt lat="42.99254" lon="-1.01284">
        <ele>1784.8249512</ele>
        <time>2016-09-24T08:42:00Z</time>
      </trkpt>
      <trkpt lat="42.99244" lon="-1.0127">
        <ele>1784.3442383</ele>
        <time>2016-09-24T08:42:15Z</time>
      </trkpt>
      <trkpt lat="42.99241" lon="-1.01261">
        <ele>1786.7473145</ele>
        <time>2016-09-24T08:42:24Z</time>
      </trkpt>
      <trkpt lat="42.99238" lon="-1.01247">
        <ele>1789.1508789</ele>
        <time>2016-09-24T08:42:42Z</time>
      </trkpt>
      <trkpt lat="42.99238" lon="-1.01245">
        <ele>1790.5927734</ele>
        <time>2016-09-24T08:42:46Z</time>
      </trkpt>
      <trkpt lat="42.99235" lon="-1.01245">
        <ele>1790.1123047</ele>
        <time>2016-09-24T08:42:52Z</time>
      </trkpt>
      <trkpt lat="42.99235" lon="-1.01244">
        <ele>1792.0349121</ele>
        <time>2016-09-24T08:42:56Z</time>
      </trkpt>
      <trkpt lat="42.99226" lon="-1.01235">
        <ele>1795.3994141</ele>
        <time>2016-09-24T08:43:10Z</time>
      </trkpt>
      <trkpt lat="42.99219" lon="-1.01222">
        <ele>1793.9575195</ele>
        <time>2016-09-24T08:43:24Z</time>
      </trkpt>
      <trkpt lat="42.99212" lon="-1.0121">
        <ele>1794.9187012</ele>
        <time>2016-09-24T08:43:42Z</time>
      </trkpt>
      <trkpt lat="42.99208" lon="-1.01199">
        <ele>1795.3994141</ele>
        <time>2016-09-24T08:43:59Z</time>
      </trkpt>
      <trkpt lat="42.99208" lon="-1.01199">
        <ele>1797.3220215</ele>
        <time>2016-09-24T08:44:01Z</time>
      </trkpt>
      <trkpt lat="42.99201" lon="-1.01199">
        <ele>1796.8413086</ele>
        <time>2016-09-24T08:44:22Z</time>
      </trkpt>
      <trkpt lat="42.99193" lon="-1.01182">
        <ele>1798.763916</ele>
        <time>2016-09-24T08:44:39Z</time>
      </trkpt>
      <trkpt lat="42.99188" lon="-1.01184">
        <ele>1797.3220215</ele>
        <time>2016-09-24T08:44:44Z</time>
      </trkpt>
      <trkpt lat="42.99177" lon="-1.0117">
        <ele>1797.3220215</ele>
        <time>2016-09-24T08:45:04Z</time>
      </trkpt>
      <trkpt lat="42.99164" lon="-1.01156">
        <ele>1796.8413086</ele>
        <time>2016-09-24T08:45:22Z</time>
      </trkpt>
      <trkpt lat="42.99154" lon="-1.01147">
        <ele>1796.8413086</ele>
        <time>2016-09-24T08:45:42Z</time>
      </trkpt>
      <trkpt lat="42.99141" lon="-1.01136">
        <ele>1798.2832031</ele>
        <time>2016-09-24T08:46:01Z</time>
      </trkpt>
      <trkpt lat="42.99136" lon="-1.01133">
        <ele>1797.3220215</ele>
        <time>2016-09-24T08:46:16Z</time>
      </trkpt>
      <trkpt lat="42.99127" lon="-1.0112">
        <ele>1798.763916</ele>
        <time>2016-09-24T08:46:36Z</time>
      </trkpt>
      <trkpt lat="42.99124" lon="-1.01118">
        <ele>1800.6865234</ele>
        <time>2016-09-24T08:46:39Z</time>
      </trkpt>
      <trkpt lat="42.99115" lon="-1.01114">
        <ele>1799.2446289</ele>
        <time>2016-09-24T08:46:56Z</time>
      </trkpt>
      <trkpt lat="42.99109" lon="-1.01105">
        <ele>1797.8027344</ele>
        <time>2016-09-24T08:47:13Z</time>
      </trkpt>
      <trkpt lat="42.99108" lon="-1.01104">
        <ele>1798.763916</ele>
        <time>2016-09-24T08:47:43Z</time>
      </trkpt>
      <trkpt lat="42.99099" lon="-1.01093">
        <ele>1799.2446289</ele>
        <time>2016-09-24T08:47:58Z</time>
      </trkpt>
      <trkpt lat="42.99107" lon="-1.01097">
        <ele>1801.1672363</ele>
        <time>2016-09-24T08:48:30Z</time>
      </trkpt>
      <trkpt lat="42.99111" lon="-1.01101">
        <ele>1802.128418</ele>
        <time>2016-09-24T08:48:36Z</time>
      </trkpt>
      <trkpt lat="42.99117" lon="-1.01104">
        <ele>1804.0515137</ele>
        <time>2016-09-24T08:48:49Z</time>
      </trkpt>
      <trkpt lat="42.9913" lon="-1.01116">
        <ele>1804.0515137</ele>
        <time>2016-09-24T08:49:06Z</time>
      </trkpt>
      <trkpt lat="42.99144" lon="-1.01132">
        <ele>1804.0515137</ele>
        <time>2016-09-24T08:49:26Z</time>
      </trkpt>
      <trkpt lat="42.99158" lon="-1.01143">
        <ele>1805.0126953</ele>
        <time>2016-09-24T08:49:43Z</time>
      </trkpt>
      <trkpt lat="42.9917" lon="-1.01158">
        <ele>1805.4934082</ele>
        <time>2016-09-24T08:50:02Z</time>
      </trkpt>
      <trkpt lat="42.99181" lon="-1.01167">
        <ele>1805.973877</ele>
        <time>2016-09-24T08:50:22Z</time>
      </trkpt>
      <trkpt lat="42.99195" lon="-1.01178">
        <ele>1806.9353027</ele>
        <time>2016-09-24T08:50:39Z</time>
      </trkpt>
      <trkpt lat="42.99201" lon="-1.01185">
        <ele>1807.4160156</ele>
        <time>2016-09-24T08:52:17Z</time>
      </trkpt>
      <trkpt lat="42.9921" lon="-1.01187">
        <ele>1810.7805176</ele>
        <time>2016-09-24T08:52:28Z</time>
      </trkpt>
      <trkpt lat="42.99219" lon="-1.0119">
        <ele>1814.1450195</ele>
        <time>2016-09-24T08:52:38Z</time>
      </trkpt>
      <trkpt lat="42.9922" lon="-1.0119">
        <ele>1816.067627</ele>
        <time>2016-09-24T08:52:40Z</time>
      </trkpt>
      <trkpt lat="42.99225" lon="-1.01187">
        <ele>1818.9516602</ele>
        <time>2016-09-24T08:52:44Z</time>
      </trkpt>
      <trkpt lat="42.99227" lon="-1.01186">
        <ele>1820.3937988</ele>
        <time>2016-09-24T08:52:46Z</time>
      </trkpt>
      <trkpt lat="42.99229" lon="-1.01185">
        <ele>1821.8356934</ele>
        <time>2016-09-24T08:52:48Z</time>
      </trkpt>
      <trkpt lat="42.99229" lon="-1.01183">
        <ele>1820.3937988</ele>
        <time>2016-09-24T08:52:50Z</time>
      </trkpt>
      <trkpt lat="42.99229" lon="-1.01181">
        <ele>1818.9516602</ele>
        <time>2016-09-24T08:52:54Z</time>
      </trkpt>
      <trkpt lat="42.99229" lon="-1.01175">
        <ele>1820.8745117</ele>
        <time>2016-09-24T08:52:59Z</time>
      </trkpt>
      <trkpt lat="42.99229" lon="-1.01169">
        <ele>1823.277832</ele>
        <time>2016-09-24T08:53:07Z</time>
      </trkpt>
      <trkpt lat="42.99229" lon="-1.01165">
        <ele>1826.642334</ele>
        <time>2016-09-24T08:53:12Z</time>
      </trkpt>
      <trkpt lat="42.99229" lon="-1.01165">
        <ele>1826.642334</ele>
        <time>2016-09-24T08:53:13Z</time>
      </trkpt>
      <trkpt lat="42.99228" lon="-1.01164">
        <ele>1824.7197266</ele>
        <time>2016-09-24T08:53:15Z</time>
      </trkpt>
      <trkpt lat="42.99228" lon="-1.01163">
        <ele>1827.6035156</ele>
        <time>2016-09-24T08:53:17Z</time>
      </trkpt>
      <trkpt lat="42.99227" lon="-1.01163">
        <ele>1827.6035156</ele>
        <time>2016-09-24T08:53:18Z</time>
      </trkpt>
      <trkpt lat="42.99227" lon="-1.01162">
        <ele>1826.1616211</ele>
        <time>2016-09-24T08:53:20Z</time>
      </trkpt>
      <trkpt lat="42.99226" lon="-1.01161">
        <ele>1827.6035156</ele>
        <time>2016-09-24T08:53:26Z</time>
      </trkpt>
      <trkpt lat="42.99224" lon="-1.01154">
        <ele>1829.526123</ele>
        <time>2016-09-24T08:53:37Z</time>
      </trkpt>
      <trkpt lat="42.99225" lon="-1.01152">
        <ele>1831.4487305</ele>
        <time>2016-09-24T08:53:39Z</time>
      </trkpt>
      <trkpt lat="42.99224" lon="-1.01151">
        <ele>1830.0068359</ele>
        <time>2016-09-24T08:53:41Z</time>
      </trkpt>
      <trkpt lat="42.99224" lon="-1.01149">
        <ele>1832.4101563</ele>
        <time>2016-09-24T08:53:45Z</time>
      </trkpt>
      <trkpt lat="42.99224" lon="-1.01147">
        <ele>1833.8520508</ele>
        <time>2016-09-24T08:53:47Z</time>
      </trkpt>
      <trkpt lat="42.99217" lon="-1.01129">
        <ele>1832.4101563</ele>
        <time>2016-09-24T08:54:11Z</time>
      </trkpt>
      <trkpt lat="42.99209" lon="-1.01117">
        <ele>1834.8134766</ele>
        <time>2016-09-24T08:54:30Z</time>
      </trkpt>
      <trkpt lat="42.99208" lon="-1.01116">
        <ele>1834.8134766</ele>
        <time>2016-09-24T08:54:31Z</time>
      </trkpt>
      <trkpt lat="42.99209" lon="-1.01114">
        <ele>1836.2556152</ele>
        <time>2016-09-24T08:54:38Z</time>
      </trkpt>
      <trkpt lat="42.9921" lon="-1.01102">
        <ele>1838.6589355</ele>
        <time>2016-09-24T08:54:56Z</time>
      </trkpt>
      <trkpt lat="42.99209" lon="-1.01098">
        <ele>1840.5812988</ele>
        <time>2016-09-24T08:55:01Z</time>
      </trkpt>
      <trkpt lat="42.99206" lon="-1.01082">
        <ele>1844.4265137</ele>
        <time>2016-09-24T08:55:19Z</time>
      </trkpt>
      <trkpt lat="42.99207" lon="-1.01082">
        <ele>1844.4265137</ele>
        <time>2016-09-24T08:55:20Z</time>
      </trkpt>
      <trkpt lat="42.9921" lon="-1.01084">
        <ele>1846.829834</ele>
        <time>2016-09-24T08:55:26Z</time>
      </trkpt>
      <trkpt lat="42.9921" lon="-1.01084">
        <ele>1849.7138672</ele>
        <time>2016-09-24T08:55:28Z</time>
      </trkpt>
      <trkpt lat="42.99211" lon="-1.01078">
        <ele>1848.2717285</ele>
        <time>2016-09-24T08:55:43Z</time>
      </trkpt>
      <trkpt lat="42.99208" lon="-1.01071">
        <ele>1849.7138672</ele>
        <time>2016-09-24T08:55:57Z</time>
      </trkpt>
      <trkpt lat="42.99206" lon="-1.01062">
        <ele>1853.0786133</ele>
        <time>2016-09-24T08:56:13Z</time>
      </trkpt>
      <trkpt lat="42.99202" lon="-1.01051">
        <ele>1853.5593262</ele>
        <time>2016-09-24T08:56:30Z</time>
      </trkpt>
      <trkpt lat="42.992" lon="-1.01041">
        <ele>1856.4431152</ele>
        <time>2016-09-24T08:56:43Z</time>
      </trkpt>
      <trkpt lat="42.99194" lon="-1.01034">
        <ele>1859.8076172</ele>
        <time>2016-09-24T08:56:58Z</time>
      </trkpt>
      <trkpt lat="42.99188" lon="-1.01027">
        <ele>1861.7304688</ele>
        <time>2016-09-24T08:57:12Z</time>
      </trkpt>
      <trkpt lat="42.99183" lon="-1.0102">
        <ele>1864.6142578</ele>
        <time>2016-09-24T08:57:27Z</time>
      </trkpt>
      <trkpt lat="42.99178" lon="-1.01018">
        <ele>1865.0949707</ele>
        <time>2016-09-24T08:57:32Z</time>
      </trkpt>
      <trkpt lat="42.99173" lon="-1.01011">
        <ele>1868.9404297</ele>
        <time>2016-09-24T08:57:50Z</time>
      </trkpt>
      <trkpt lat="42.9917" lon="-1.00996">
        <ele>1872.3049316</ele>
        <time>2016-09-24T08:58:09Z</time>
      </trkpt>
      <trkpt lat="42.9917" lon="-1.00994">
        <ele>1873.2663574</ele>
        <time>2016-09-24T08:58:11Z</time>
      </trkpt>
      <trkpt lat="42.99169" lon="-1.00991">
        <ele>1874.2275391</ele>
        <time>2016-09-24T08:58:15Z</time>
      </trkpt>
      <trkpt lat="42.99159" lon="-1.0098">
        <ele>1877.592041</ele>
        <time>2016-09-24T08:58:37Z</time>
      </trkpt>
      <trkpt lat="42.99149" lon="-1.00961">
        <ele>1880.4760742</ele>
        <time>2016-09-24T08:59:00Z</time>
      </trkpt>
      <trkpt lat="42.99143" lon="-1.00948">
        <ele>1883.3598633</ele>
        <time>2016-09-24T08:59:20Z</time>
      </trkpt>
      <trkpt lat="42.99144" lon="-1.00947">
        <ele>1885.2827148</ele>
        <time>2016-09-24T08:59:22Z</time>
      </trkpt>
      <trkpt lat="42.99142" lon="-1.00944">
        <ele>1887.2053223</ele>
        <time>2016-09-24T08:59:26Z</time>
      </trkpt>
      <trkpt lat="42.99137" lon="-1.00941">
        <ele>1885.2827148</ele>
        <time>2016-09-24T08:59:31Z</time>
      </trkpt>
      <trkpt lat="42.99135" lon="-1.0094">
        <ele>1886.7246094</ele>
        <time>2016-09-24T08:59:33Z</time>
      </trkpt>
      <trkpt lat="42.99128" lon="-1.00932">
        <ele>1886.7246094</ele>
        <time>2016-09-24T08:59:47Z</time>
      </trkpt>
      <trkpt lat="42.99127" lon="-1.00931">
        <ele>1884.3215332</ele>
        <time>2016-09-24T08:59:54Z</time>
      </trkpt>
      <trkpt lat="42.99127" lon="-1.00931">
        <ele>1886.2441406</ele>
        <time>2016-09-24T09:00:08Z</time>
      </trkpt>
      <trkpt lat="42.99127" lon="-1.00931">
        <ele>1887.6860352</ele>
        <time>2016-09-24T09:00:11Z</time>
      </trkpt>
      <trkpt lat="42.99123" lon="-1.00925">
        <ele>1890.0893555</ele>
        <time>2016-09-24T09:00:30Z</time>
      </trkpt>
      <trkpt lat="42.9911" lon="-1.00915">
        <ele>1892.9731445</ele>
        <time>2016-09-24T09:00:53Z</time>
      </trkpt>
      <trkpt lat="42.99098" lon="-1.0091">
        <ele>1893.9345703</ele>
        <time>2016-09-24T09:01:15Z</time>
      </trkpt>
      <trkpt lat="42.99091" lon="-1.009">
        <ele>1894.895752</ele>
        <time>2016-09-24T09:01:31Z</time>
      </trkpt>
      <trkpt lat="42.99086" lon="-1.0089">
        <ele>1897.7797852</ele>
        <time>2016-09-24T09:01:46Z</time>
      </trkpt>
      <trkpt lat="42.99077" lon="-1.00885">
        <ele>1899.7023926</ele>
        <time>2016-09-24T09:02:07Z</time>
      </trkpt>
      <trkpt lat="42.99073" lon="-1.00876">
        <ele>1902.5864258</ele>
        <time>2016-09-24T09:02:26Z</time>
      </trkpt>
      <trkpt lat="42.99073" lon="-1.00877">
        <ele>1904.0285645</ele>
        <time>2016-09-24T09:02:34Z</time>
      </trkpt>
      <trkpt lat="42.99069" lon="-1.00868">
        <ele>1906.4316406</ele>
        <time>2016-09-24T09:02:49Z</time>
      </trkpt>
      <trkpt lat="42.99063" lon="-1.00857">
        <ele>1909.3156738</ele>
        <time>2016-09-24T09:03:11Z</time>
      </trkpt>
      <trkpt lat="42.99056" lon="-1.00851">
        <ele>1912.6801758</ele>
        <time>2016-09-24T09:03:30Z</time>
      </trkpt>
      <trkpt lat="42.99049" lon="-1.00844">
        <ele>1914.6027832</ele>
        <time>2016-09-24T09:03:47Z</time>
      </trkpt>
      <trkpt lat="42.99043" lon="-1.00836">
        <ele>1917.9675293</ele>
        <time>2016-09-24T09:04:04Z</time>
      </trkpt>
      <trkpt lat="42.99043" lon="-1.00836">
        <ele>1917.9675293</ele>
        <time>2016-09-24T09:04:05Z</time>
      </trkpt>
      <trkpt lat="42.99028" lon="-1.00824">
        <ele>1920.3708496</ele>
        <time>2016-09-24T09:04:33Z</time>
      </trkpt>
      <trkpt lat="42.99017" lon="-1.00817">
        <ele>1923.7353516</ele>
        <time>2016-09-24T09:04:54Z</time>
      </trkpt>
      <trkpt lat="42.99019" lon="-1.00812">
        <ele>1926.1386719</ele>
        <time>2016-09-24T09:05:09Z</time>
      </trkpt>
      <trkpt lat="42.99032" lon="-1.00814">
        <ele>1926.6193848</ele>
        <time>2016-09-24T09:05:25Z</time>
      </trkpt>
      <trkpt lat="42.99044" lon="-1.0081">
        <ele>1929.9838867</ele>
        <time>2016-09-24T09:05:41Z</time>
      </trkpt>
      <trkpt lat="42.99045" lon="-1.00806">
        <ele>1933.3486328</ele>
        <time>2016-09-24T09:05:53Z</time>
      </trkpt>
      <trkpt lat="42.99045" lon="-1.00806">
        <ele>1933.3486328</ele>
        <time>2016-09-24T09:05:54Z</time>
      </trkpt>
      <trkpt lat="42.99037" lon="-1.00801">
        <ele>1934.7907715</ele>
        <time>2016-09-24T09:06:09Z</time>
      </trkpt>
      <trkpt lat="42.99031" lon="-1.00795">
        <ele>1937.1938477</ele>
        <time>2016-09-24T09:06:25Z</time>
      </trkpt>
      <trkpt lat="42.99027" lon="-1.00788">
        <ele>1940.5583496</ele>
        <time>2016-09-24T09:06:35Z</time>
      </trkpt>
      <trkpt lat="42.99027" lon="-1.00788">
        <ele>1940.5583496</ele>
        <time>2016-09-24T09:06:36Z</time>
      </trkpt>
      <trkpt lat="42.99027" lon="-1.00787">
        <ele>1939.1164551</ele>
        <time>2016-09-24T09:06:38Z</time>
      </trkpt>
      <trkpt lat="42.99027" lon="-1.00787">
        <ele>1942.0004883</ele>
        <time>2016-09-24T09:06:41Z</time>
      </trkpt>
      <trkpt lat="42.99026" lon="-1.00784">
        <ele>1940.5583496</ele>
        <time>2016-09-24T09:06:45Z</time>
      </trkpt>
      <trkpt lat="42.9902" lon="-1.00779">
        <ele>1944.4035645</ele>
        <time>2016-09-24T09:07:01Z</time>
      </trkpt>
      <trkpt lat="42.9902" lon="-1.00778">
        <ele>1944.4035645</ele>
        <time>2016-09-24T09:07:02Z</time>
      </trkpt>
      <trkpt lat="42.99016" lon="-1.00777">
        <ele>1944.8842773</ele>
        <time>2016-09-24T09:07:18Z</time>
      </trkpt>
      <trkpt lat="42.99012" lon="-1.00774">
        <ele>1947.7683105</ele>
        <time>2016-09-24T09:07:33Z</time>
      </trkpt>
      <trkpt lat="42.99007" lon="-1.00766">
        <ele>1949.2104492</ele>
        <time>2016-09-24T09:07:52Z</time>
      </trkpt>
      <trkpt lat="42.99004" lon="-1.00761">
        <ele>1952.5749512</ele>
        <time>2016-09-24T09:08:02Z</time>
      </trkpt>
      <trkpt lat="42.99004" lon="-1.00761">
        <ele>1952.5749512</ele>
        <time>2016-09-24T09:08:03Z</time>
      </trkpt>
      <trkpt lat="42.99004" lon="-1.00759">
        <ele>1954.0170898</ele>
        <time>2016-09-24T09:08:07Z</time>
      </trkpt>
      <trkpt lat="42.98999" lon="-1.00756">
        <ele>1956.9008789</ele>
        <time>2016-09-24T09:08:19Z</time>
      </trkpt>
      <trkpt lat="42.98999" lon="-1.00756">
        <ele>1955.4589844</ele>
        <time>2016-09-24T09:08:22Z</time>
      </trkpt>
      <trkpt lat="42.98992" lon="-1.0075">
        <ele>1957.3815918</ele>
        <time>2016-09-24T09:08:43Z</time>
      </trkpt>
      <trkpt lat="42.9899" lon="-1.00743">
        <ele>1960.7460938</ele>
        <time>2016-09-24T09:08:56Z</time>
      </trkpt>
      <trkpt lat="42.9899" lon="-1.00743">
        <ele>1960.2653809</ele>
        <time>2016-09-24T09:08:57Z</time>
      </trkpt>
      <trkpt lat="42.98985" lon="-1.00738">
        <ele>1961.7075195</ele>
        <time>2016-09-24T09:09:13Z</time>
      </trkpt>
      <trkpt lat="42.98978" lon="-1.00732">
        <ele>1964.1108398</ele>
        <time>2016-09-24T09:09:32Z</time>
      </trkpt>
      <trkpt lat="42.98975" lon="-1.00727">
        <ele>1966.5141602</ele>
        <time>2016-09-24T09:09:42Z</time>
      </trkpt>
      <trkpt lat="42.98974" lon="-1.00727">
        <ele>1965.5529785</ele>
        <time>2016-09-24T09:09:50Z</time>
      </trkpt>
      <trkpt lat="42.98974" lon="-1.00727">
        <ele>1966.994873</ele>
        <time>2016-09-24T09:09:52Z</time>
      </trkpt>
      <trkpt lat="42.98972" lon="-1.00726">
        <ele>1968.9174805</ele>
        <time>2016-09-24T09:09:57Z</time>
      </trkpt>
      <trkpt lat="42.98959" lon="-1.00715">
        <ele>1971.8012695</ele>
        <time>2016-09-24T09:10:22Z</time>
      </trkpt>
      <trkpt lat="42.98962" lon="-1.00709">
        <ele>1974.6853027</ele>
        <time>2016-09-24T09:10:29Z</time>
      </trkpt>
      <trkpt lat="42.98954" lon="-1.00706">
        <ele>1975.6464844</ele>
        <time>2016-09-24T09:10:44Z</time>
      </trkpt>
      <trkpt lat="42.98947" lon="-1.007">
        <ele>1977.088623</ele>
        <time>2016-09-24T09:10:58Z</time>
      </trkpt>
      <trkpt lat="42.98945" lon="-1.00697">
        <ele>1980.4533691</ele>
        <time>2016-09-24T09:11:07Z</time>
      </trkpt>
      <trkpt lat="42.98945" lon="-1.00697">
        <ele>1980.4533691</ele>
        <time>2016-09-24T09:11:08Z</time>
      </trkpt>
      <trkpt lat="42.98938" lon="-1.00691">
        <ele>1981.4145508</ele>
        <time>2016-09-24T09:11:26Z</time>
      </trkpt>
      <trkpt lat="42.98932" lon="-1.00686">
        <ele>1984.7792969</ele>
        <time>2016-09-24T09:11:43Z</time>
      </trkpt>
      <trkpt lat="42.98926" lon="-1.00678">
        <ele>1988.1437988</ele>
        <time>2016-09-24T09:12:04Z</time>
      </trkpt>
      <trkpt lat="42.98924" lon="-1.00672">
        <ele>1991.5083008</ele>
        <time>2016-09-24T09:12:15Z</time>
      </trkpt>
      <trkpt lat="42.98923" lon="-1.00671">
        <ele>1991.5083008</ele>
        <time>2016-09-24T09:12:16Z</time>
      </trkpt>
      <trkpt lat="42.9892" lon="-1.00668">
        <ele>1992.4697266</ele>
        <time>2016-09-24T09:12:26Z</time>
      </trkpt>
      <trkpt lat="42.98917" lon="-1.00662">
        <ele>1993.4309082</ele>
        <time>2016-09-24T09:12:41Z</time>
      </trkpt>
      <trkpt lat="42.9891" lon="-1.00654">
        <ele>1995.8342285</ele>
        <time>2016-09-24T09:13:02Z</time>
      </trkpt>
      <trkpt lat="42.98903" lon="-1.00645">
        <ele>1998.7182617</ele>
        <time>2016-09-24T09:13:26Z</time>
      </trkpt>
      <trkpt lat="42.98892" lon="-1.0064">
        <ele>2002.0827637</ele>
        <time>2016-09-24T09:13:47Z</time>
      </trkpt>
      <trkpt lat="42.98883" lon="-1.00631">
        <ele>2004.9667969</ele>
        <time>2016-09-24T09:14:08Z</time>
      </trkpt>
      <trkpt lat="42.98874" lon="-1.00621">
        <ele>2007.8508301</ele>
        <time>2016-09-24T09:14:29Z</time>
      </trkpt>
      <trkpt lat="42.98861" lon="-1.00616">
        <ele>2010.7346191</ele>
        <time>2016-09-24T09:14:51Z</time>
      </trkpt>
      <trkpt lat="42.9886" lon="-1.00613">
        <ele>2012.1767578</ele>
        <time>2016-09-24T09:15:00Z</time>
      </trkpt>
      <trkpt lat="42.98856" lon="-1.00612">
        <ele>2012.6574707</ele>
        <time>2016-09-24T09:15:17Z</time>
      </trkpt>
      <trkpt lat="42.98849" lon="-1.0061">
        <ele>2011.215332</ele>
        <time>2016-09-24T09:15:48Z</time>
      </trkpt>
      <trkpt lat="42.98838" lon="-1.00609">
        <ele>2011.6960449</ele>
        <time>2016-09-24T09:16:07Z</time>
      </trkpt>
      <trkpt lat="42.98838" lon="-1.00608">
        <ele>2012.6574707</ele>
        <time>2016-09-24T09:17:08Z</time>
      </trkpt>
      <trkpt lat="42.98837" lon="-1.00608">
        <ele>2011.6960449</ele>
        <time>2016-09-24T09:18:44Z</time>
      </trkpt>
      <trkpt lat="42.98827" lon="-1.00606">
        <ele>2012.1767578</ele>
        <time>2016-09-24T09:18:52Z</time>
      </trkpt>
      <trkpt lat="42.98803" lon="-1.00602">
        <ele>2008.8120117</ele>
        <time>2016-09-24T09:19:14Z</time>
      </trkpt>
      <trkpt lat="42.98787" lon="-1.006">
        <ele>2010.2539063</ele>
        <time>2016-09-24T09:19:29Z</time>
      </trkpt>
      <trkpt lat="42.9877" lon="-1.00597">
        <ele>2010.7346191</ele>
        <time>2016-09-24T09:19:44Z</time>
      </trkpt>
      <trkpt lat="42.98759" lon="-1.00594">
        <ele>2012.6574707</ele>
        <time>2016-09-24T09:19:55Z</time>
      </trkpt>
      <trkpt lat="42.98755" lon="-1.00594">
        <ele>2011.6960449</ele>
        <time>2016-09-24T09:19:59Z</time>
      </trkpt>
      <trkpt lat="42.98739" lon="-1.00588">
        <ele>2014.0993652</ele>
        <time>2016-09-24T09:20:19Z</time>
      </trkpt>
      <trkpt lat="42.98733" lon="-1.00585">
        <ele>2013.6186523</ele>
        <time>2016-09-24T09:20:34Z</time>
      </trkpt>
      <trkpt lat="42.98743" lon="-1.00586">
        <ele>2014.0993652</ele>
        <time>2016-09-24T09:21:06Z</time>
      </trkpt>
      <trkpt lat="42.98743" lon="-1.00586">
        <ele>2012.6574707</ele>
        <time>2016-09-24T09:21:42Z</time>
      </trkpt>
      <trkpt lat="42.98748" lon="-1.00587">
        <ele>2013.6186523</ele>
        <time>2016-09-24T09:21:48Z</time>
      </trkpt>
      <trkpt lat="42.98765" lon="-1.0059">
        <ele>2012.1767578</ele>
        <time>2016-09-24T09:22:05Z</time>
      </trkpt>
      <trkpt lat="42.98777" lon="-1.00594">
        <ele>2012.1767578</ele>
        <time>2016-09-24T09:22:17Z</time>
      </trkpt>
      <trkpt lat="42.98785" lon="-1.00593">
        <ele>2010.2539063</ele>
        <time>2016-09-24T09:22:27Z</time>
      </trkpt>
      <trkpt lat="42.98791" lon="-1.00591">
        <ele>2012.6574707</ele>
        <time>2016-09-24T09:22:45Z</time>
      </trkpt>
      <trkpt lat="42.98791" lon="-1.0059">
        <ele>2010.2539063</ele>
        <time>2016-09-24T09:22:48Z</time>
      </trkpt>
      <trkpt lat="42.9879" lon="-1.00591">
        <ele>2010.2539063</ele>
        <time>2016-09-24T09:22:52Z</time>
      </trkpt>
      <trkpt lat="42.9879" lon="-1.00591">
        <ele>2009.7731934</ele>
        <time>2016-09-24T10:24:16Z</time>
      </trkpt>
      <trkpt lat="42.9879" lon="-1.00591">
        <ele>2009.7731934</ele>
        <time>2016-09-24T10:24:17Z</time>
      </trkpt>
      <trkpt lat="42.98791" lon="-1.00593">
        <ele>2009.7731934</ele>
        <time>2016-09-24T10:24:21Z</time>
      </trkpt>
      <trkpt lat="42.98791" lon="-1.00594">
        <ele>2012.6574707</ele>
        <time>2016-09-24T10:25:02Z</time>
      </trkpt>
      <trkpt lat="42.98792" lon="-1.00597">
        <ele>2015.5415039</ele>
        <time>2016-09-24T10:25:34Z</time>
      </trkpt>
      <trkpt lat="42.98797" lon="-1.00598">
        <ele>2016.0219727</ele>
        <time>2016-09-24T10:25:48Z</time>
      </trkpt>
      <trkpt lat="42.98797" lon="-1.00599">
        <ele>2016.0219727</ele>
        <time>2016-09-24T10:25:49Z</time>
      </trkpt>
      <trkpt lat="42.98799" lon="-1.006">
        <ele>2015.060791</ele>
        <time>2016-09-24T10:25:51Z</time>
      </trkpt>
      <trkpt lat="42.98816" lon="-1.00603">
        <ele>2016.5026855</ele>
        <time>2016-09-24T10:26:11Z</time>
      </trkpt>
      <trkpt lat="42.98833" lon="-1.00607">
        <ele>2016.5026855</ele>
        <time>2016-09-24T10:26:32Z</time>
      </trkpt>
      <trkpt lat="42.98837" lon="-1.00609">
        <ele>2018.425293</ele>
        <time>2016-09-24T10:26:35Z</time>
      </trkpt>
      <trkpt lat="42.98839" lon="-1.00609">
        <ele>2016.5026855</ele>
        <time>2016-09-24T10:26:37Z</time>
      </trkpt>
      <trkpt lat="42.98854" lon="-1.00612">
        <ele>2015.5415039</ele>
        <time>2016-09-24T10:26:55Z</time>
      </trkpt>
      <trkpt lat="42.98858" lon="-1.00612">
        <ele>2018.425293</ele>
        <time>2016-09-24T10:27:03Z</time>
      </trkpt>
      <trkpt lat="42.98858" lon="-1.00612">
        <ele>2016.9833984</ele>
        <time>2016-09-24T10:27:05Z</time>
      </trkpt>
      <trkpt lat="42.98867" lon="-1.00614">
        <ele>2015.060791</ele>
        <time>2016-09-24T10:27:17Z</time>
      </trkpt>
      <trkpt lat="42.98883" lon="-1.00622">
        <ele>2012.6574707</ele>
        <time>2016-09-24T10:27:35Z</time>
      </trkpt>
      <trkpt lat="42.98883" lon="-1.00623">
        <ele>2010.2539063</ele>
        <time>2016-09-24T10:27:38Z</time>
      </trkpt>
      <trkpt lat="42.98884" lon="-1.00624">
        <ele>2012.6574707</ele>
        <time>2016-09-24T10:27:40Z</time>
      </trkpt>
      <trkpt lat="42.98889" lon="-1.00634">
        <ele>2010.2539063</ele>
        <time>2016-09-24T10:27:50Z</time>
      </trkpt>
      <trkpt lat="42.98891" lon="-1.00635">
        <ele>2008.8120117</ele>
        <time>2016-09-24T10:27:53Z</time>
      </trkpt>
      <trkpt lat="42.98903" lon="-1.00643">
        <ele>2005.9279785</ele>
        <time>2016-09-24T10:28:09Z</time>
      </trkpt>
      <trkpt lat="42.98904" lon="-1.00646">
        <ele>2004.0056152</ele>
        <time>2016-09-24T10:28:12Z</time>
      </trkpt>
      <trkpt lat="42.98914" lon="-1.00656">
        <ele>2003.5249023</ele>
        <time>2016-09-24T10:28:29Z</time>
      </trkpt>
      <trkpt lat="42.98915" lon="-1.00657">
        <ele>2003.0441895</ele>
        <time>2016-09-24T10:28:33Z</time>
      </trkpt>
      <trkpt lat="42.98919" lon="-1.00661">
        <ele>2000.6408691</ele>
        <time>2016-09-24T10:28:40Z</time>
      </trkpt>
      <trkpt lat="42.98921" lon="-1.00663">
        <ele>1998.7182617</ele>
        <time>2016-09-24T10:28:44Z</time>
      </trkpt>
      <trkpt lat="42.98924" lon="-1.00668">
        <ele>1996.7956543</ele>
        <time>2016-09-24T10:28:54Z</time>
      </trkpt>
      <trkpt lat="42.98925" lon="-1.00669">
        <ele>1999.1989746</ele>
        <time>2016-09-24T10:28:56Z</time>
      </trkpt>
      <trkpt lat="42.98925" lon="-1.00672">
        <ele>1997.2763672</ele>
        <time>2016-09-24T10:28:59Z</time>
      </trkpt>
      <trkpt lat="42.98926" lon="-1.00673">
        <ele>1998.7182617</ele>
        <time>2016-09-24T10:29:01Z</time>
      </trkpt>
      <trkpt lat="42.98926" lon="-1.00674">
        <ele>1995.8342285</ele>
        <time>2016-09-24T10:29:03Z</time>
      </trkpt>
      <trkpt lat="42.98925" lon="-1.00675">
        <ele>1992.4697266</ele>
        <time>2016-09-24T10:29:04Z</time>
      </trkpt>
      <trkpt lat="42.98925" lon="-1.00677">
        <ele>1992.4697266</ele>
        <time>2016-09-24T10:29:05Z</time>
      </trkpt>
      <trkpt lat="42.98926" lon="-1.00678">
        <ele>1994.8728027</ele>
        <time>2016-09-24T10:29:07Z</time>
      </trkpt>
      <trkpt lat="42.98932" lon="-1.00684">
        <ele>1994.3920898</ele>
        <time>2016-09-24T10:29:17Z</time>
      </trkpt>
      <trkpt lat="42.98936" lon="-1.00687">
        <ele>1991.5083008</ele>
        <time>2016-09-24T10:29:24Z</time>
      </trkpt>
      <trkpt lat="42.98939" lon="-1.00687">
        <ele>1991.0275879</ele>
        <time>2016-09-24T10:29:30Z</time>
      </trkpt>
      <trkpt lat="42.98942" lon="-1.00691">
        <ele>1990.0664063</ele>
        <time>2016-09-24T10:29:36Z</time>
      </trkpt>
      <trkpt lat="42.98941" lon="-1.00692">
        <ele>1985.7404785</ele>
        <time>2016-09-24T10:29:38Z</time>
      </trkpt>
      <trkpt lat="42.98941" lon="-1.00693">
        <ele>1985.7404785</ele>
        <time>2016-09-24T10:29:39Z</time>
      </trkpt>
      <trkpt lat="42.98942" lon="-1.00694">
        <ele>1989.5856934</ele>
        <time>2016-09-24T10:29:40Z</time>
      </trkpt>
      <trkpt lat="42.98943" lon="-1.00694">
        <ele>1989.5856934</ele>
        <time>2016-09-24T10:29:41Z</time>
      </trkpt>
      <trkpt lat="42.98945" lon="-1.00697">
        <ele>1987.6630859</ele>
        <time>2016-09-24T10:29:47Z</time>
      </trkpt>
      <trkpt lat="42.98951" lon="-1.00701">
        <ele>1985.2597656</ele>
        <time>2016-09-24T10:29:55Z</time>
      </trkpt>
      <trkpt lat="42.98953" lon="-1.00703">
        <ele>1980.934082</ele>
        <time>2016-09-24T10:30:01Z</time>
      </trkpt>
      <trkpt lat="42.98953" lon="-1.00704">
        <ele>1980.934082</ele>
        <time>2016-09-24T10:30:02Z</time>
      </trkpt>
      <trkpt lat="42.98954" lon="-1.00704">
        <ele>1983.3371582</ele>
        <time>2016-09-24T10:30:04Z</time>
      </trkpt>
      <trkpt lat="42.9896" lon="-1.00706">
        <ele>1981.8952637</ele>
        <time>2016-09-24T10:30:12Z</time>
      </trkpt>
      <trkpt lat="42.9896" lon="-1.0071">
        <ele>1979.9724121</ele>
        <time>2016-09-24T10:30:17Z</time>
      </trkpt>
      <trkpt lat="42.98958" lon="-1.00713">
        <ele>1975.6464844</ele>
        <time>2016-09-24T10:30:20Z</time>
      </trkpt>
      <trkpt lat="42.98958" lon="-1.00714">
        <ele>1975.6464844</ele>
        <time>2016-09-24T10:30:21Z</time>
      </trkpt>
      <trkpt lat="42.98959" lon="-1.00716">
        <ele>1977.5690918</ele>
        <time>2016-09-24T10:30:23Z</time>
      </trkpt>
      <trkpt lat="42.9896" lon="-1.00717">
        <ele>1979.0109863</ele>
        <time>2016-09-24T10:30:25Z</time>
      </trkpt>
      <trkpt lat="42.98968" lon="-1.0072">
        <ele>1979.0109863</ele>
        <time>2016-09-24T10:30:36Z</time>
      </trkpt>
      <trkpt lat="42.98971" lon="-1.00721">
        <ele>1980.4533691</ele>
        <time>2016-09-24T10:30:38Z</time>
      </trkpt>
      <trkpt lat="42.98972" lon="-1.00721">
        <ele>1979.0109863</ele>
        <time>2016-09-24T10:30:40Z</time>
      </trkpt>
      <trkpt lat="42.98975" lon="-1.00727">
        <ele>1975.1657715</ele>
        <time>2016-09-24T10:30:47Z</time>
      </trkpt>
      <trkpt lat="42.98975" lon="-1.00728">
        <ele>1974.6853027</ele>
        <time>2016-09-24T10:30:48Z</time>
      </trkpt>
      <trkpt lat="42.98977" lon="-1.0073">
        <ele>1974.6853027</ele>
        <time>2016-09-24T10:30:52Z</time>
      </trkpt>
      <trkpt lat="42.98977" lon="-1.00732">
        <ele>1972.2819824</ele>
        <time>2016-09-24T10:30:54Z</time>
      </trkpt>
      <trkpt lat="42.98978" lon="-1.00734">
        <ele>1969.8786621</ele>
        <time>2016-09-24T10:30:59Z</time>
      </trkpt>
      <trkpt lat="42.98979" lon="-1.00736">
        <ele>1971.8012695</ele>
        <time>2016-09-24T10:31:01Z</time>
      </trkpt>
      <trkpt lat="42.98988" lon="-1.00743">
        <ele>1966.994873</ele>
        <time>2016-09-24T10:31:17Z</time>
      </trkpt>
      <trkpt lat="42.98988" lon="-1.00744">
        <ele>1966.994873</ele>
        <time>2016-09-24T10:31:18Z</time>
      </trkpt>
      <trkpt lat="42.98989" lon="-1.00745">
        <ele>1965.0722656</ele>
        <time>2016-09-24T10:31:22Z</time>
      </trkpt>
      <trkpt lat="42.9899" lon="-1.00746">
        <ele>1966.994873</ele>
        <time>2016-09-24T10:31:24Z</time>
      </trkpt>
      <trkpt lat="42.98993" lon="-1.00747">
        <ele>1965.0722656</ele>
        <time>2016-09-24T10:31:30Z</time>
      </trkpt>
      <trkpt lat="42.98993" lon="-1.00748">
        <ele>1963.1494141</ele>
        <time>2016-09-24T10:31:32Z</time>
      </trkpt>
      <trkpt lat="42.98994" lon="-1.00749">
        <ele>1965.5529785</ele>
        <time>2016-09-24T10:31:35Z</time>
      </trkpt>
      <trkpt lat="42.98995" lon="-1.00751">
        <ele>1968.4367676</ele>
        <time>2016-09-24T10:31:39Z</time>
      </trkpt>
      <trkpt lat="42.98996" lon="-1.00752">
        <ele>1966.994873</ele>
        <time>2016-09-24T10:31:41Z</time>
      </trkpt>
      <trkpt lat="42.98998" lon="-1.00753">
        <ele>1966.0334473</ele>
        <time>2016-09-24T10:31:45Z</time>
      </trkpt>
      <trkpt lat="42.99002" lon="-1.00759">
        <ele>1964.5915527</ele>
        <time>2016-09-24T10:31:56Z</time>
      </trkpt>
      <trkpt lat="42.99003" lon="-1.0076">
        <ele>1966.5141602</ele>
        <time>2016-09-24T10:31:58Z</time>
      </trkpt>
      <trkpt lat="42.99003" lon="-1.0076">
        <ele>1963.6298828</ele>
        <time>2016-09-24T10:32:00Z</time>
      </trkpt>
      <trkpt lat="42.99003" lon="-1.00761">
        <ele>1957.8623047</ele>
        <time>2016-09-24T10:32:01Z</time>
      </trkpt>
      <trkpt lat="42.99003" lon="-1.00762">
        <ele>1957.8623047</ele>
        <time>2016-09-24T10:32:02Z</time>
      </trkpt>
      <trkpt lat="42.99004" lon="-1.00762">
        <ele>1960.2653809</ele>
        <time>2016-09-24T10:32:04Z</time>
      </trkpt>
      <trkpt lat="42.99007" lon="-1.00764">
        <ele>1956.9008789</ele>
        <time>2016-09-24T10:32:09Z</time>
      </trkpt>
      <trkpt lat="42.99007" lon="-1.00765">
        <ele>1956.9008789</ele>
        <time>2016-09-24T10:32:10Z</time>
      </trkpt>
      <trkpt lat="42.99012" lon="-1.00773">
        <ele>1956.420166</ele>
        <time>2016-09-24T10:32:29Z</time>
      </trkpt>
      <trkpt lat="42.99013" lon="-1.00775">
        <ele>1954.9782715</ele>
        <time>2016-09-24T10:32:33Z</time>
      </trkpt>
      <trkpt lat="42.99016" lon="-1.00781">
        <ele>1952.0942383</ele>
        <time>2016-09-24T10:32:45Z</time>
      </trkpt>
      <trkpt lat="42.99016" lon="-1.00782">
        <ele>1952.0942383</ele>
        <time>2016-09-24T10:32:46Z</time>
      </trkpt>
      <trkpt lat="42.99017" lon="-1.00781">
        <ele>1950.6523438</ele>
        <time>2016-09-24T10:32:48Z</time>
      </trkpt>
      <trkpt lat="42.99019" lon="-1.00784">
        <ele>1952.5749512</ele>
        <time>2016-09-24T10:32:52Z</time>
      </trkpt>
      <trkpt lat="42.99021" lon="-1.00786">
        <ele>1950.171875</ele>
        <time>2016-09-24T10:32:55Z</time>
      </trkpt>
      <trkpt lat="42.99022" lon="-1.00787">
        <ele>1948.2490234</ele>
        <time>2016-09-24T10:32:59Z</time>
      </trkpt>
      <trkpt lat="42.99024" lon="-1.00789">
        <ele>1947.7683105</ele>
        <time>2016-09-24T10:33:03Z</time>
      </trkpt>
      <trkpt lat="42.99025" lon="-1.00791">
        <ele>1943.4423828</ele>
        <time>2016-09-24T10:33:06Z</time>
      </trkpt>
      <trkpt lat="42.99025" lon="-1.00792">
        <ele>1943.4423828</ele>
        <time>2016-09-24T10:33:07Z</time>
      </trkpt>
      <trkpt lat="42.99027" lon="-1.00794">
        <ele>1944.4035645</ele>
        <time>2016-09-24T10:33:12Z</time>
      </trkpt>
      <trkpt lat="42.99028" lon="-1.00795">
        <ele>1942.9616699</ele>
        <time>2016-09-24T10:33:14Z</time>
      </trkpt>
      <trkpt lat="42.99035" lon="-1.00804">
        <ele>1939.597168</ele>
        <time>2016-09-24T10:33:29Z</time>
      </trkpt>
      <trkpt lat="42.99043" lon="-1.00811">
        <ele>1940.5583496</ele>
        <time>2016-09-24T10:33:45Z</time>
      </trkpt>
      <trkpt lat="42.99044" lon="-1.00812">
        <ele>1939.1164551</ele>
        <time>2016-09-24T10:33:47Z</time>
      </trkpt>
      <trkpt lat="42.99053" lon="-1.00817">
        <ele>1934.3100586</ele>
        <time>2016-09-24T10:34:03Z</time>
      </trkpt>
      <trkpt lat="42.99053" lon="-1.00817">
        <ele>1934.3100586</ele>
        <time>2016-09-24T10:34:04Z</time>
      </trkpt>
      <trkpt lat="42.99054" lon="-1.00817">
        <ele>1937.6745605</ele>
        <time>2016-09-24T10:34:05Z</time>
      </trkpt>
      <trkpt lat="42.99055" lon="-1.00818">
        <ele>1937.6745605</ele>
        <time>2016-09-24T10:34:06Z</time>
      </trkpt>
      <trkpt lat="42.99055" lon="-1.0082">
        <ele>1938.6359863</ele>
        <time>2016-09-24T10:34:07Z</time>
      </trkpt>
      <trkpt lat="42.99057" lon="-1.00822">
        <ele>1940.5583496</ele>
        <time>2016-09-24T10:34:11Z</time>
      </trkpt>
      <trkpt lat="42.99058" lon="-1.0082">
        <ele>1936.232666</ele>
        <time>2016-09-24T10:34:12Z</time>
      </trkpt>
      <trkpt lat="42.99057" lon="-1.0082">
        <ele>1936.232666</ele>
        <time>2016-09-24T10:34:13Z</time>
      </trkpt>
      <trkpt lat="42.99057" lon="-1.00818">
        <ele>1937.6745605</ele>
        <time>2016-09-24T10:34:15Z</time>
      </trkpt>
      <trkpt lat="42.99053" lon="-1.00815">
        <ele>1938.6359863</ele>
        <time>2016-09-24T10:34:19Z</time>
      </trkpt>
      <trkpt lat="42.99051" lon="-1.00814">
        <ele>1936.7131348</ele>
        <time>2016-09-24T10:34:21Z</time>
      </trkpt>
      <trkpt lat="42.99047" lon="-1.00812">
        <ele>1936.232666</ele>
        <time>2016-09-24T10:34:25Z</time>
      </trkpt>
      <trkpt lat="42.99041" lon="-1.00813">
        <ele>1933.8293457</ele>
        <time>2016-09-24T10:34:32Z</time>
      </trkpt>
      <trkpt lat="42.99019" lon="-1.00813">
        <ele>1931.4257813</ele>
        <time>2016-09-24T10:34:53Z</time>
      </trkpt>
      <trkpt lat="42.99025" lon="-1.00822">
        <ele>1929.0224609</ele>
        <time>2016-09-24T10:35:07Z</time>
      </trkpt>
      <trkpt lat="42.99033" lon="-1.00831">
        <ele>1925.657959</ele>
        <time>2016-09-24T10:35:21Z</time>
      </trkpt>
      <trkpt lat="42.99041" lon="-1.00839">
        <ele>1924.2160645</ele>
        <time>2016-09-24T10:35:33Z</time>
      </trkpt>
      <trkpt lat="42.99044" lon="-1.00844">
        <ele>1922.7741699</ele>
        <time>2016-09-24T10:35:39Z</time>
      </trkpt>
      <trkpt lat="42.9905" lon="-1.00852">
        <ele>1921.3320313</ele>
        <time>2016-09-24T10:35:50Z</time>
      </trkpt>
      <trkpt lat="42.99049" lon="-1.00855">
        <ele>1919.409668</ele>
        <time>2016-09-24T10:35:52Z</time>
      </trkpt>
      <trkpt lat="42.99055" lon="-1.00863">
        <ele>1917.4868164</ele>
        <time>2016-09-24T10:36:04Z</time>
      </trkpt>
      <trkpt lat="42.99062" lon="-1.00875">
        <ele>1916.0449219</ele>
        <time>2016-09-24T10:36:21Z</time>
      </trkpt>
      <trkpt lat="42.99063" lon="-1.00877">
        <ele>1914.6027832</ele>
        <time>2016-09-24T10:36:23Z</time>
      </trkpt>
      <trkpt lat="42.99063" lon="-1.00879">
        <ele>1913.1608887</ele>
        <time>2016-09-24T10:36:25Z</time>
      </trkpt>
      <trkpt lat="42.99069" lon="-1.00884">
        <ele>1909.3156738</ele>
        <time>2016-09-24T10:36:37Z</time>
      </trkpt>
      <trkpt lat="42.99069" lon="-1.00884">
        <ele>1909.3156738</ele>
        <time>2016-09-24T10:36:38Z</time>
      </trkpt>
      <trkpt lat="42.99071" lon="-1.0089">
        <ele>1908.354248</ele>
        <time>2016-09-24T10:36:44Z</time>
      </trkpt>
      <trkpt lat="42.99074" lon="-1.00893">
        <ele>1907.8737793</ele>
        <time>2016-09-24T10:36:51Z</time>
      </trkpt>
      <trkpt lat="42.99075" lon="-1.00895">
        <ele>1909.3156738</ele>
        <time>2016-09-24T10:36:53Z</time>
      </trkpt>
      <trkpt lat="42.99076" lon="-1.00896">
        <ele>1906.9123535</ele>
        <time>2016-09-24T10:36:55Z</time>
      </trkpt>
      <trkpt lat="42.99083" lon="-1.009">
        <ele>1904.9897461</ele>
        <time>2016-09-24T10:37:06Z</time>
      </trkpt>
      <trkpt lat="42.99091" lon="-1.00908">
        <ele>1901.1445313</ele>
        <time>2016-09-24T10:37:19Z</time>
      </trkpt>
      <trkpt lat="42.99092" lon="-1.00909">
        <ele>1901.6252441</ele>
        <time>2016-09-24T10:37:33Z</time>
      </trkpt>
      <trkpt lat="42.99092" lon="-1.0091">
        <ele>1901.1445313</ele>
        <time>2016-09-24T10:40:30Z</time>
      </trkpt>
      <trkpt lat="42.99093" lon="-1.00911">
        <ele>1902.5864258</ele>
        <time>2016-09-24T10:40:32Z</time>
      </trkpt>
      <trkpt lat="42.99099" lon="-1.00916">
        <ele>1899.2216797</ele>
        <time>2016-09-24T10:40:40Z</time>
      </trkpt>
      <trkpt lat="42.99099" lon="-1.00917">
        <ele>1899.2216797</ele>
        <time>2016-09-24T10:40:41Z</time>
      </trkpt>
      <trkpt lat="42.99101" lon="-1.00918">
        <ele>1901.1445313</ele>
        <time>2016-09-24T10:40:43Z</time>
      </trkpt>
      <trkpt lat="42.99104" lon="-1.00921">
        <ele>1901.6252441</ele>
        <time>2016-09-24T10:40:47Z</time>
      </trkpt>
      <trkpt lat="42.99106" lon="-1.00922">
        <ele>1899.2216797</ele>
        <time>2016-09-24T10:40:49Z</time>
      </trkpt>
      <trkpt lat="42.99111" lon="-1.00924">
        <ele>1898.7409668</ele>
        <time>2016-09-24T10:40:55Z</time>
      </trkpt>
      <trkpt lat="42.99119" lon="-1.00934">
        <ele>1896.8183594</ele>
        <time>2016-09-24T10:41:08Z</time>
      </trkpt>
      <trkpt lat="42.99122" lon="-1.00937">
        <ele>1894.895752</ele>
        <time>2016-09-24T10:41:14Z</time>
      </trkpt>
      <trkpt lat="42.99122" lon="-1.00939">
        <ele>1893.4538574</ele>
        <time>2016-09-24T10:41:16Z</time>
      </trkpt>
      <trkpt lat="42.99126" lon="-1.00944">
        <ele>1895.3764648</ele>
        <time>2016-09-24T10:41:21Z</time>
      </trkpt>
      <trkpt lat="42.99135" lon="-1.00954">
        <ele>1892.9731445</ele>
        <time>2016-09-24T10:41:32Z</time>
      </trkpt>
      <trkpt lat="42.99136" lon="-1.00956">
        <ele>1890.0893555</ele>
        <time>2016-09-24T10:41:35Z</time>
      </trkpt>
      <trkpt lat="42.99137" lon="-1.00958">
        <ele>1888.166748</ele>
        <time>2016-09-24T10:41:40Z</time>
      </trkpt>
      <trkpt lat="42.99137" lon="-1.0096">
        <ele>1888.166748</ele>
        <time>2016-09-24T10:41:41Z</time>
      </trkpt>
      <trkpt lat="42.99142" lon="-1.00968">
        <ele>1885.7634277</ele>
        <time>2016-09-24T10:41:50Z</time>
      </trkpt>
      <trkpt lat="42.99154" lon="-1.00986">
        <ele>1885.2827148</ele>
        <time>2016-09-24T10:42:09Z</time>
      </trkpt>
      <trkpt lat="42.99162" lon="-1.00994">
        <ele>1883.8405762</ele>
        <time>2016-09-24T10:42:20Z</time>
      </trkpt>
      <trkpt lat="42.99167" lon="-1.01">
        <ele>1881.4372559</ele>
        <time>2016-09-24T10:42:28Z</time>
      </trkpt>
      <trkpt lat="42.99166" lon="-1.01003">
        <ele>1879.5146484</ele>
        <time>2016-09-24T10:42:30Z</time>
      </trkpt>
      <trkpt lat="42.99167" lon="-1.01006">
        <ele>1877.1115723</ele>
        <time>2016-09-24T10:42:32Z</time>
      </trkpt>
      <trkpt lat="42.99167" lon="-1.01007">
        <ele>1878.0727539</ele>
        <time>2016-09-24T10:42:33Z</time>
      </trkpt>
      <trkpt lat="42.99176" lon="-1.01024">
        <ele>1874.708252</ele>
        <time>2016-09-24T10:42:52Z</time>
      </trkpt>
      <trkpt lat="42.9918" lon="-1.01029">
        <ele>1872.3049316</ele>
        <time>2016-09-24T10:43:06Z</time>
      </trkpt>
      <trkpt lat="42.99188" lon="-1.01042">
        <ele>1869.4211426</ele>
        <time>2016-09-24T10:43:23Z</time>
      </trkpt>
      <trkpt lat="42.99192" lon="-1.01048">
        <ele>1866.5368652</ele>
        <time>2016-09-24T10:43:32Z</time>
      </trkpt>
      <trkpt lat="42.99198" lon="-1.01056">
        <ele>1863.1723633</ele>
        <time>2016-09-24T10:43:43Z</time>
      </trkpt>
      <trkpt lat="42.99199" lon="-1.01056">
        <ele>1863.1723633</ele>
        <time>2016-09-24T10:43:44Z</time>
      </trkpt>
      <trkpt lat="42.992" lon="-1.0106">
        <ele>1860.769043</ele>
        <time>2016-09-24T10:43:48Z</time>
      </trkpt>
      <trkpt lat="42.99203" lon="-1.01068">
        <ele>1859.3271484</ele>
        <time>2016-09-24T10:43:57Z</time>
      </trkpt>
      <trkpt lat="42.99207" lon="-1.01073">
        <ele>1857.404541</ele>
        <time>2016-09-24T10:44:17Z</time>
      </trkpt>
      <trkpt lat="42.99209" lon="-1.01084">
        <ele>1856.4431152</ele>
        <time>2016-09-24T10:44:30Z</time>
      </trkpt>
      <trkpt lat="42.99213" lon="-1.01087">
        <ele>1851.6364746</ele>
        <time>2016-09-24T10:44:40Z</time>
      </trkpt>
      <trkpt lat="42.99212" lon="-1.01088">
        <ele>1851.6364746</ele>
        <time>2016-09-24T10:44:41Z</time>
      </trkpt>
      <trkpt lat="42.99209" lon="-1.01092">
        <ele>1851.6364746</ele>
        <time>2016-09-24T10:44:48Z</time>
      </trkpt>
      <trkpt lat="42.99206" lon="-1.01092">
        <ele>1848.7524414</ele>
        <time>2016-09-24T10:44:54Z</time>
      </trkpt>
      <trkpt lat="42.99206" lon="-1.01093">
        <ele>1850.1945801</ele>
        <time>2016-09-24T10:44:56Z</time>
      </trkpt>
      <trkpt lat="42.99208" lon="-1.011">
        <ele>1848.2717285</ele>
        <time>2016-09-24T10:45:02Z</time>
      </trkpt>
      <trkpt lat="42.99207" lon="-1.01105">
        <ele>1844.9072266</ele>
        <time>2016-09-24T10:45:07Z</time>
      </trkpt>
      <trkpt lat="42.99207" lon="-1.01106">
        <ele>1844.9072266</ele>
        <time>2016-09-24T10:45:08Z</time>
      </trkpt>
      <trkpt lat="42.99208" lon="-1.01108">
        <ele>1846.3493652</ele>
        <time>2016-09-24T10:45:10Z</time>
      </trkpt>
      <trkpt lat="42.99209" lon="-1.01114">
        <ele>1842.0234375</ele>
        <time>2016-09-24T10:45:28Z</time>
      </trkpt>
      <trkpt lat="42.99209" lon="-1.01115">
        <ele>1842.0234375</ele>
        <time>2016-09-24T10:45:29Z</time>
      </trkpt>
      <trkpt lat="42.99207" lon="-1.01121">
        <ele>1842.5041504</ele>
        <time>2016-09-24T10:45:40Z</time>
      </trkpt>
      <trkpt lat="42.99215" lon="-1.01133">
        <ele>1839.1394043</ele>
        <time>2016-09-24T10:45:51Z</time>
      </trkpt>
      <trkpt lat="42.99216" lon="-1.01141">
        <ele>1839.1394043</ele>
        <time>2016-09-24T10:45:59Z</time>
      </trkpt>
      <trkpt lat="42.99221" lon="-1.01154">
        <ele>1837.6975098</ele>
        <time>2016-09-24T10:46:12Z</time>
      </trkpt>
      <trkpt lat="42.99221" lon="-1.01154">
        <ele>1833.8520508</ele>
        <time>2016-09-24T10:46:13Z</time>
      </trkpt>
      <trkpt lat="42.99221" lon="-1.01155">
        <ele>1833.8520508</ele>
        <time>2016-09-24T10:46:14Z</time>
      </trkpt>
      <trkpt lat="42.99221" lon="-1.01158">
        <ele>1833.3713379</ele>
        <time>2016-09-24T10:46:20Z</time>
      </trkpt>
      <trkpt lat="42.99222" lon="-1.0116">
        <ele>1830.9682617</ele>
        <time>2016-09-24T10:46:22Z</time>
      </trkpt>
      <trkpt lat="42.99224" lon="-1.01163">
        <ele>1834.3327637</ele>
        <time>2016-09-24T10:46:24Z</time>
      </trkpt>
      <trkpt lat="42.99227" lon="-1.01168">
        <ele>1832.890625</ele>
        <time>2016-09-24T10:46:29Z</time>
      </trkpt>
      <trkpt lat="42.99227" lon="-1.01169">
        <ele>1831.4487305</ele>
        <time>2016-09-24T10:46:31Z</time>
      </trkpt>
      <trkpt lat="42.99228" lon="-1.01172">
        <ele>1831.9294434</ele>
        <time>2016-09-24T10:46:35Z</time>
      </trkpt>
      <trkpt lat="42.99229" lon="-1.01173">
        <ele>1830.0068359</ele>
        <time>2016-09-24T10:46:37Z</time>
      </trkpt>
      <trkpt lat="42.99231" lon="-1.01174">
        <ele>1829.0454102</ele>
        <time>2016-09-24T10:47:01Z</time>
      </trkpt>
      <trkpt lat="42.9923" lon="-1.01175">
        <ele>1825.2001953</ele>
        <time>2016-09-24T10:47:03Z</time>
      </trkpt>
      <trkpt lat="42.9923" lon="-1.01176">
        <ele>1825.2001953</ele>
        <time>2016-09-24T10:47:04Z</time>
      </trkpt>
      <trkpt lat="42.9923" lon="-1.01179">
        <ele>1826.642334</ele>
        <time>2016-09-24T10:47:06Z</time>
      </trkpt>
      <trkpt lat="42.99228" lon="-1.01186">
        <ele>1823.7583008</ele>
        <time>2016-09-24T10:47:14Z</time>
      </trkpt>
      <trkpt lat="42.99228" lon="-1.01189">
        <ele>1826.1616211</ele>
        <time>2016-09-24T10:47:17Z</time>
      </trkpt>
      <trkpt lat="42.99229" lon="-1.01191">
        <ele>1822.7971191</ele>
        <time>2016-09-24T10:47:18Z</time>
      </trkpt>
      <trkpt lat="42.99229" lon="-1.01193">
        <ele>1822.7971191</ele>
        <time>2016-09-24T10:47:19Z</time>
      </trkpt>
      <trkpt lat="42.9923" lon="-1.01195">
        <ele>1825.2001953</ele>
        <time>2016-09-24T10:47:21Z</time>
      </trkpt>
      <trkpt lat="42.99229" lon="-1.01197">
        <ele>1822.7971191</ele>
        <time>2016-09-24T10:47:25Z</time>
      </trkpt>
      <trkpt lat="42.99229" lon="-1.01202">
        <ele>1820.3937988</ele>
        <time>2016-09-24T10:47:34Z</time>
      </trkpt>
      <trkpt lat="42.9923" lon="-1.01206">
        <ele>1821.8356934</ele>
        <time>2016-09-24T10:47:38Z</time>
      </trkpt>
      <trkpt lat="42.9923" lon="-1.01207">
        <ele>1820.8745117</ele>
        <time>2016-09-24T10:47:40Z</time>
      </trkpt>
      <trkpt lat="42.99233" lon="-1.01211">
        <ele>1818.9516602</ele>
        <time>2016-09-24T10:47:44Z</time>
      </trkpt>
      <trkpt lat="42.99235" lon="-1.01216">
        <ele>1817.0290527</ele>
        <time>2016-09-24T10:47:51Z</time>
      </trkpt>
      <trkpt lat="42.99236" lon="-1.01218">
        <ele>1817.0290527</ele>
        <time>2016-09-24T10:47:55Z</time>
      </trkpt>
      <trkpt lat="42.99237" lon="-1.01221">
        <ele>1817.5095215</ele>
        <time>2016-09-24T10:48:08Z</time>
      </trkpt>
      <trkpt lat="42.99239" lon="-1.01226">
        <ele>1817.0290527</ele>
        <time>2016-09-24T10:48:14Z</time>
      </trkpt>
      <trkpt lat="42.9924" lon="-1.01227">
        <ele>1815.5871582</ele>
        <time>2016-09-24T10:48:16Z</time>
      </trkpt>
      <trkpt lat="42.99241" lon="-1.01229">
        <ele>1816.067627</ele>
        <time>2016-09-24T10:48:20Z</time>
      </trkpt>
      <trkpt lat="42.99244" lon="-1.01233">
        <ele>1813.1838379</ele>
        <time>2016-09-24T10:48:28Z</time>
      </trkpt>
      <trkpt lat="42.99244" lon="-1.01233">
        <ele>1813.1838379</ele>
        <time>2016-09-24T10:48:29Z</time>
      </trkpt>
      <trkpt lat="42.99245" lon="-1.01233">
        <ele>1812.703125</ele>
        <time>2016-09-24T10:48:35Z</time>
      </trkpt>
      <trkpt lat="42.99246" lon="-1.01234">
        <ele>1809.338623</ele>
        <time>2016-09-24T10:48:44Z</time>
      </trkpt>
      <trkpt lat="42.99245" lon="-1.01235">
        <ele>1811.2612305</ele>
        <time>2016-09-24T10:48:45Z</time>
      </trkpt>
      <trkpt lat="42.99244" lon="-1.01237">
        <ele>1807.8967285</ele>
        <time>2016-09-24T10:48:47Z</time>
      </trkpt>
      <trkpt lat="42.99244" lon="-1.01239">
        <ele>1807.8967285</ele>
        <time>2016-09-24T10:48:48Z</time>
      </trkpt>
      <trkpt lat="42.99245" lon="-1.01243">
        <ele>1806.9353027</ele>
        <time>2016-09-24T10:48:52Z</time>
      </trkpt>
      <trkpt lat="42.99246" lon="-1.01251">
        <ele>1807.4160156</ele>
        <time>2016-09-24T10:48:58Z</time>
      </trkpt>
      <trkpt lat="42.99249" lon="-1.01255">
        <ele>1806.9353027</ele>
        <time>2016-09-24T10:49:02Z</time>
      </trkpt>
      <trkpt lat="42.99256" lon="-1.01271">
        <ele>1805.0126953</ele>
        <time>2016-09-24T10:49:19Z</time>
      </trkpt>
      <trkpt lat="42.99262" lon="-1.01285">
        <ele>1802.128418</ele>
        <time>2016-09-24T10:49:32Z</time>
      </trkpt>
      <trkpt lat="42.99261" lon="-1.01288">
        <ele>1800.6865234</ele>
        <time>2016-09-24T10:49:33Z</time>
      </trkpt>
      <trkpt lat="42.99265" lon="-1.013">
        <ele>1797.3220215</ele>
        <time>2016-09-24T10:49:48Z</time>
      </trkpt>
      <trkpt lat="42.99267" lon="-1.01312">
        <ele>1796.3608398</ele>
        <time>2016-09-24T10:50:09Z</time>
      </trkpt>
      <trkpt lat="42.99269" lon="-1.01313">
        <ele>1796.8413086</ele>
        <time>2016-09-24T10:50:23Z</time>
      </trkpt>
      <trkpt lat="42.9927" lon="-1.01314">
        <ele>1795.3994141</ele>
        <time>2016-09-24T10:50:25Z</time>
      </trkpt>
      <trkpt lat="42.99273" lon="-1.01324">
        <ele>1792.9960938</ele>
        <time>2016-09-24T10:50:37Z</time>
      </trkpt>
      <trkpt lat="42.99274" lon="-1.01328">
        <ele>1791.0734863</ele>
        <time>2016-09-24T10:50:41Z</time>
      </trkpt>
      <trkpt lat="42.99276" lon="-1.01333">
        <ele>1789.6315918</ele>
        <time>2016-09-24T10:50:46Z</time>
      </trkpt>
      <trkpt lat="42.99276" lon="-1.01337">
        <ele>1786.2668457</ele>
        <time>2016-09-24T10:51:01Z</time>
      </trkpt>
      <trkpt lat="42.99277" lon="-1.01342">
        <ele>1784.3442383</ele>
        <time>2016-09-24T10:51:17Z</time>
      </trkpt>
      <trkpt lat="42.99278" lon="-1.01344">
        <ele>1782.9020996</ele>
        <time>2016-09-24T10:51:21Z</time>
      </trkpt>
      <trkpt lat="42.9928" lon="-1.01354">
        <ele>1780.0183105</ele>
        <time>2016-09-24T10:51:44Z</time>
      </trkpt>
      <trkpt lat="42.99282" lon="-1.01364">
        <ele>1779.0568848</ele>
        <time>2016-09-24T10:51:55Z</time>
      </trkpt>
      <trkpt lat="42.99287" lon="-1.01382">
        <ele>1775.6923828</ele>
        <time>2016-09-24T10:52:12Z</time>
      </trkpt>
      <trkpt lat="42.9929" lon="-1.01392">
        <ele>1774.2504883</ele>
        <time>2016-09-24T10:52:21Z</time>
      </trkpt>
      <trkpt lat="42.99291" lon="-1.01395">
        <ele>1774.2504883</ele>
        <time>2016-09-24T10:52:24Z</time>
      </trkpt>
      <trkpt lat="42.99294" lon="-1.0141">
        <ele>1771.8469238</ele>
        <time>2016-09-24T10:52:38Z</time>
      </trkpt>
      <trkpt lat="42.99298" lon="-1.01426">
        <ele>1770.8857422</ele>
        <time>2016-09-24T10:52:54Z</time>
      </trkpt>
      <trkpt lat="42.99299" lon="-1.01431">
        <ele>1768.9631348</ele>
        <time>2016-09-24T10:52:59Z</time>
      </trkpt>
      <trkpt lat="42.99299" lon="-1.01432">
        <ele>1767.5209961</ele>
        <time>2016-09-24T10:53:01Z</time>
      </trkpt>
      <trkpt lat="42.99301" lon="-1.01441">
        <ele>1766.0791016</ele>
        <time>2016-09-24T10:53:09Z</time>
      </trkpt>
      <trkpt lat="42.99304" lon="-1.01444">
        <ele>1765.5986328</ele>
        <time>2016-09-24T10:53:30Z</time>
      </trkpt>
      <trkpt lat="42.99304" lon="-1.01445">
        <ele>1763.6757813</ele>
        <time>2016-09-24T10:53:41Z</time>
      </trkpt>
      <trkpt lat="42.99304" lon="-1.0145">
        <ele>1763.6757813</ele>
        <time>2016-09-24T10:53:46Z</time>
      </trkpt>
      <trkpt lat="42.99305" lon="-1.01464">
        <ele>1762.7145996</ele>
        <time>2016-09-24T10:54:01Z</time>
      </trkpt>
      <trkpt lat="42.99307" lon="-1.0147">
        <ele>1760.7919922</ele>
        <time>2016-09-24T10:54:06Z</time>
      </trkpt>
      <trkpt lat="42.99306" lon="-1.01475">
        <ele>1761.2727051</ele>
        <time>2016-09-24T10:54:12Z</time>
      </trkpt>
      <trkpt lat="42.99306" lon="-1.01477">
        <ele>1759.3500977</ele>
        <time>2016-09-24T10:54:14Z</time>
      </trkpt>
      <trkpt lat="42.99306" lon="-1.01495">
        <ele>1756.9467773</ele>
        <time>2016-09-24T10:54:32Z</time>
      </trkpt>
      <trkpt lat="42.99306" lon="-1.01494">
        <ele>1756.9467773</ele>
        <time>2016-09-24T10:54:33Z</time>
      </trkpt>
      <trkpt lat="42.99306" lon="-1.01497">
        <ele>1755.9851074</ele>
        <time>2016-09-24T10:54:42Z</time>
      </trkpt>
      <trkpt lat="42.99305" lon="-1.015">
        <ele>1756.4660645</ele>
        <time>2016-09-24T10:54:50Z</time>
      </trkpt>
      <trkpt lat="42.99307" lon="-1.01506">
        <ele>1755.0239258</ele>
        <time>2016-09-24T10:54:54Z</time>
      </trkpt>
      <trkpt lat="42.99307" lon="-1.01518">
        <ele>1752.6206055</ele>
        <time>2016-09-24T10:55:03Z</time>
      </trkpt>
      <trkpt lat="42.99308" lon="-1.01537">
        <ele>1753.5820313</ele>
        <time>2016-09-24T10:55:19Z</time>
      </trkpt>
      <trkpt lat="42.99309" lon="-1.01538">
        <ele>1753.5820313</ele>
        <time>2016-09-24T10:55:20Z</time>
      </trkpt>
      <trkpt lat="42.99309" lon="-1.01544">
        <ele>1751.6594238</ele>
        <time>2016-09-24T10:55:26Z</time>
      </trkpt>
      <trkpt lat="42.99309" lon="-1.01545">
        <ele>1749.2561035</ele>
        <time>2016-09-24T10:55:28Z</time>
      </trkpt>
      <trkpt lat="42.99309" lon="-1.01547">
        <ele>1750.697998</ele>
        <time>2016-09-24T10:55:30Z</time>
      </trkpt>
      <trkpt lat="42.9931" lon="-1.01552">
        <ele>1747.814209</ele>
        <time>2016-09-24T10:55:35Z</time>
      </trkpt>
      <trkpt lat="42.99311" lon="-1.01554">
        <ele>1749.2561035</ele>
        <time>2016-09-24T10:55:37Z</time>
      </trkpt>
      <trkpt lat="42.99312" lon="-1.01556">
        <ele>1747.814209</ele>
        <time>2016-09-24T10:55:49Z</time>
      </trkpt>
      <trkpt lat="42.99312" lon="-1.01558">
        <ele>1746.3723145</ele>
        <time>2016-09-24T10:55:51Z</time>
      </trkpt>
      <trkpt lat="42.99312" lon="-1.01562">
        <ele>1748.7753906</ele>
        <time>2016-09-24T10:55:55Z</time>
      </trkpt>
      <trkpt lat="42.99312" lon="-1.01562">
        <ele>1746.8527832</ele>
        <time>2016-09-24T10:56:02Z</time>
      </trkpt>
      <trkpt lat="42.99311" lon="-1.01563">
        <ele>1746.3723145</ele>
        <time>2016-09-24T10:56:12Z</time>
      </trkpt>
      <trkpt lat="42.99311" lon="-1.01563">
        <ele>1749.7368164</ele>
        <time>2016-09-24T10:56:14Z</time>
      </trkpt>
      <trkpt lat="42.99311" lon="-1.01563">
        <ele>1749.7368164</ele>
        <time>2016-09-24T10:56:15Z</time>
      </trkpt>
      <trkpt lat="42.99311" lon="-1.01563">
        <ele>1747.814209</ele>
        <time>2016-09-24T10:56:17Z</time>
      </trkpt>
      <trkpt lat="42.99311" lon="-1.01563">
        <ele>1745.8916016</ele>
        <time>2016-09-24T10:56:19Z</time>
      </trkpt>
      <trkpt lat="42.99311" lon="-1.01563">
        <ele>1749.7368164</ele>
        <time>2016-09-24T10:56:32Z</time>
      </trkpt>
      <trkpt lat="42.99311" lon="-1.01563">
        <ele>1749.7368164</ele>
        <time>2016-09-24T10:56:44Z</time>
      </trkpt>
      <trkpt lat="42.99311" lon="-1.01563">
        <ele>1748.2946777</ele>
        <time>2016-09-24T10:56:50Z</time>
      </trkpt>
      <trkpt lat="42.99311" lon="-1.01563">
        <ele>1746.8527832</ele>
        <time>2016-09-24T10:56:57Z</time>
      </trkpt>
      <trkpt lat="42.9931" lon="-1.01565">
        <ele>1747.3334961</ele>
        <time>2016-09-24T10:57:13Z</time>
      </trkpt>
      <trkpt lat="42.99314" lon="-1.01569">
        <ele>1743.9689941</ele>
        <time>2016-09-24T10:57:38Z</time>
      </trkpt>
      <trkpt lat="42.99314" lon="-1.01569">
        <ele>1743.9689941</ele>
        <time>2016-09-24T10:57:39Z</time>
      </trkpt>
      <trkpt lat="42.99317" lon="-1.01576">
        <ele>1740.1237793</ele>
        <time>2016-09-24T10:57:55Z</time>
      </trkpt>
      <trkpt lat="42.99321" lon="-1.01585">
        <ele>1737.7202148</ele>
        <time>2016-09-24T10:58:14Z</time>
      </trkpt>
      <trkpt lat="42.99322" lon="-1.01584">
        <ele>1736.7587891</ele>
        <time>2016-09-24T10:58:31Z</time>
      </trkpt>
      <trkpt lat="42.99321" lon="-1.01582">
        <ele>1736.2783203</ele>
        <time>2016-09-24T10:59:35Z</time>
      </trkpt>
      <trkpt lat="42.99324" lon="-1.01587">
        <ele>1733.875</ele>
        <time>2016-09-24T11:00:01Z</time>
      </trkpt>
      <trkpt lat="42.99329" lon="-1.01591">
        <ele>1731.4716797</ele>
        <time>2016-09-24T11:00:15Z</time>
      </trkpt>
      <trkpt lat="42.99336" lon="-1.01601">
        <ele>1728.1071777</ele>
        <time>2016-09-24T11:00:35Z</time>
      </trkpt>
      <trkpt lat="42.99344" lon="-1.01604">
        <ele>1724.7426758</ele>
        <time>2016-09-24T11:00:54Z</time>
      </trkpt>
      <trkpt lat="42.99349" lon="-1.01606">
        <ele>1723.7810059</ele>
        <time>2016-09-24T11:01:01Z</time>
      </trkpt>
      <trkpt lat="42.99354" lon="-1.01607">
        <ele>1721.3776855</ele>
        <time>2016-09-24T11:01:07Z</time>
      </trkpt>
      <trkpt lat="42.99365" lon="-1.01607">
        <ele>1718.0131836</ele>
        <time>2016-09-24T11:01:19Z</time>
      </trkpt>
      <trkpt lat="42.99369" lon="-1.01607">
        <ele>1716.5712891</ele>
        <time>2016-09-24T11:01:23Z</time>
      </trkpt>
      <trkpt lat="42.99371" lon="-1.01605">
        <ele>1715.1293945</ele>
        <time>2016-09-24T11:01:25Z</time>
      </trkpt>
      <trkpt lat="42.9938" lon="-1.01601">
        <ele>1712.7260742</ele>
        <time>2016-09-24T11:01:35Z</time>
      </trkpt>
      <trkpt lat="42.99392" lon="-1.01599">
        <ele>1710.3227539</ele>
        <time>2016-09-24T11:01:44Z</time>
      </trkpt>
      <trkpt lat="42.99396" lon="-1.01597">
        <ele>1709.842041</ele>
        <time>2016-09-24T11:01:47Z</time>
      </trkpt>
      <trkpt lat="42.99405" lon="-1.01598">
        <ele>1708.8808594</ele>
        <time>2016-09-24T11:01:56Z</time>
      </trkpt>
      <trkpt lat="42.99409" lon="-1.01602">
        <ele>1710.3227539</ele>
        <time>2016-09-24T11:02:00Z</time>
      </trkpt>
      <trkpt lat="42.99414" lon="-1.01608">
        <ele>1713.6872559</ele>
        <time>2016-09-24T11:02:15Z</time>
      </trkpt>
      <trkpt lat="42.99418" lon="-1.0161">
        <ele>1716.5712891</ele>
        <time>2016-09-24T11:02:25Z</time>
      </trkpt>
      <trkpt lat="42.99422" lon="-1.01614">
        <ele>1719.4553223</ele>
        <time>2016-09-24T11:02:41Z</time>
      </trkpt>
      <trkpt lat="42.99425" lon="-1.01619">
        <ele>1722.8198242</ele>
        <time>2016-09-24T11:03:01Z</time>
      </trkpt>
      <trkpt lat="42.99429" lon="-1.01618">
        <ele>1726.1845703</ele>
        <time>2016-09-24T11:03:15Z</time>
      </trkpt>
      <trkpt lat="42.99429" lon="-1.01627">
        <ele>1728.5878906</ele>
        <time>2016-09-24T11:03:35Z</time>
      </trkpt>
      <trkpt lat="42.99433" lon="-1.01624">
        <ele>1730.510498</ele>
        <time>2016-09-24T11:03:51Z</time>
      </trkpt>
      <trkpt lat="42.99434" lon="-1.01628">
        <ele>1733.3942871</ele>
        <time>2016-09-24T11:04:06Z</time>
      </trkpt>
      <trkpt lat="42.99434" lon="-1.01632">
        <ele>1735.7976074</ele>
        <time>2016-09-24T11:04:31Z</time>
      </trkpt>
      <trkpt lat="42.99436" lon="-1.01632">
        <ele>1739.1621094</ele>
        <time>2016-09-24T11:04:42Z</time>
      </trkpt>
      <trkpt lat="42.99434" lon="-1.0164">
        <ele>1739.6428223</ele>
        <time>2016-09-24T11:04:58Z</time>
      </trkpt>
      <trkpt lat="42.99433" lon="-1.01645">
        <ele>1741.5656738</ele>
        <time>2016-09-24T11:05:21Z</time>
      </trkpt>
      <trkpt lat="42.99436" lon="-1.0165">
        <ele>1742.5270996</ele>
        <time>2016-09-24T11:05:33Z</time>
      </trkpt>
      <trkpt lat="42.99439" lon="-1.0165">
        <ele>1744.4494629</ele>
        <time>2016-09-24T11:06:09Z</time>
      </trkpt>
      <trkpt lat="42.99444" lon="-1.01655">
        <ele>1747.3334961</ele>
        <time>2016-09-24T11:06:20Z</time>
      </trkpt>
      <trkpt lat="42.99447" lon="-1.01655">
        <ele>1745.8916016</ele>
        <time>2016-09-24T11:06:30Z</time>
      </trkpt>
      <trkpt lat="42.99449" lon="-1.01654">
        <ele>1747.3334961</ele>
        <time>2016-09-24T11:06:51Z</time>
      </trkpt>
      <trkpt lat="42.9945" lon="-1.01653">
        <ele>1748.7753906</ele>
        <time>2016-09-24T11:06:56Z</time>
      </trkpt>
      <trkpt lat="42.99452" lon="-1.01651">
        <ele>1751.1787109</ele>
        <time>2016-09-24T11:07:34Z</time>
      </trkpt>
      <trkpt lat="42.99453" lon="-1.0165">
        <ele>1754.5432129</ele>
        <time>2016-09-24T11:08:02Z</time>
      </trkpt>
      <trkpt lat="42.99454" lon="-1.0165">
        <ele>1754.5432129</ele>
        <time>2016-09-24T11:08:03Z</time>
      </trkpt>
      <trkpt lat="42.99455" lon="-1.0165">
        <ele>1754.5432129</ele>
        <time>2016-09-24T11:08:23Z</time>
      </trkpt>
      <trkpt lat="42.99456" lon="-1.0165">
        <ele>1758.3886719</ele>
        <time>2016-09-24T11:08:30Z</time>
      </trkpt>
      <trkpt lat="42.99456" lon="-1.0165">
        <ele>1758.3886719</ele>
        <time>2016-09-24T11:08:31Z</time>
      </trkpt>
      <trkpt lat="42.99457" lon="-1.0165">
        <ele>1755.5046387</ele>
        <time>2016-09-24T11:08:33Z</time>
      </trkpt>
      <trkpt lat="42.99458" lon="-1.01652">
        <ele>1757.4274902</ele>
        <time>2016-09-24T11:08:37Z</time>
      </trkpt>
      <trkpt lat="42.99458" lon="-1.01652">
        <ele>1755.9851074</ele>
        <time>2016-09-24T11:08:39Z</time>
      </trkpt>
      <trkpt lat="42.99459" lon="-1.01652">
        <ele>1759.8305664</ele>
        <time>2016-09-24T11:08:42Z</time>
      </trkpt>
      <trkpt lat="42.9946" lon="-1.01652">
        <ele>1759.8305664</ele>
        <time>2016-09-24T11:08:43Z</time>
      </trkpt>
      <trkpt lat="42.99459" lon="-1.01651">
        <ele>1757.4274902</ele>
        <time>2016-09-24T11:08:52Z</time>
      </trkpt>
      <trkpt lat="42.99461" lon="-1.01653">
        <ele>1757.9082031</ele>
        <time>2016-09-24T11:09:07Z</time>
      </trkpt>
      <trkpt lat="42.99467" lon="-1.01654">
        <ele>1761.753418</ele>
        <time>2016-09-24T11:09:18Z</time>
      </trkpt>
      <trkpt lat="42.99467" lon="-1.01655">
        <ele>1761.753418</ele>
        <time>2016-09-24T11:09:19Z</time>
      </trkpt>
      <trkpt lat="42.99468" lon="-1.01656">
        <ele>1760.7919922</ele>
        <time>2016-09-24T11:09:27Z</time>
      </trkpt>
      <trkpt lat="42.99475" lon="-1.01656">
        <ele>1760.7919922</ele>
        <time>2016-09-24T11:09:45Z</time>
      </trkpt>
      <trkpt lat="42.99479" lon="-1.01659">
        <ele>1762.7145996</ele>
        <time>2016-09-24T11:09:53Z</time>
      </trkpt>
      <trkpt lat="42.99492" lon="-1.01662">
        <ele>1760.7919922</ele>
        <time>2016-09-24T11:10:12Z</time>
      </trkpt>
      <trkpt lat="42.99495" lon="-1.01666">
        <ele>1760.3112793</ele>
        <time>2016-09-24T11:10:20Z</time>
      </trkpt>
      <trkpt lat="42.99502" lon="-1.01674">
        <ele>1757.4274902</ele>
        <time>2016-09-24T11:10:32Z</time>
      </trkpt>
      <trkpt lat="42.99506" lon="-1.01688">
        <ele>1759.3500977</ele>
        <time>2016-09-24T11:10:46Z</time>
      </trkpt>
      <trkpt lat="42.99514" lon="-1.0171">
        <ele>1758.3886719</ele>
        <time>2016-09-24T11:11:05Z</time>
      </trkpt>
      <trkpt lat="42.99525" lon="-1.01728">
        <ele>1757.4274902</ele>
        <time>2016-09-24T11:11:22Z</time>
      </trkpt>
      <trkpt lat="42.99527" lon="-1.01734">
        <ele>1758.8693848</ele>
        <time>2016-09-24T11:11:45Z</time>
      </trkpt>
      <trkpt lat="42.99527" lon="-1.01734">
        <ele>1757.9082031</ele>
        <time>2016-09-24T11:12:16Z</time>
      </trkpt>
      <trkpt lat="42.99529" lon="-1.01741">
        <ele>1756.4660645</ele>
        <time>2016-09-24T11:12:49Z</time>
      </trkpt>
      <trkpt lat="42.99533" lon="-1.0175">
        <ele>1755.0239258</ele>
        <time>2016-09-24T11:13:05Z</time>
      </trkpt>
      <trkpt lat="42.99536" lon="-1.01761">
        <ele>1755.5046387</ele>
        <time>2016-09-24T11:13:15Z</time>
      </trkpt>
      <trkpt lat="42.99538" lon="-1.01768">
        <ele>1753.5820313</ele>
        <time>2016-09-24T11:13:20Z</time>
      </trkpt>
      <trkpt lat="42.99543" lon="-1.01781">
        <ele>1750.2175293</ele>
        <time>2016-09-24T11:13:33Z</time>
      </trkpt>
      <trkpt lat="42.99551" lon="-1.01801">
        <ele>1749.2561035</ele>
        <time>2016-09-24T11:13:55Z</time>
      </trkpt>
      <trkpt lat="42.99556" lon="-1.01814">
        <ele>1745.8916016</ele>
        <time>2016-09-24T11:14:09Z</time>
      </trkpt>
      <trkpt lat="42.99562" lon="-1.01828">
        <ele>1745.8916016</ele>
        <time>2016-09-24T11:14:24Z</time>
      </trkpt>
      <trkpt lat="42.99567" lon="-1.01839">
        <ele>1744.4494629</ele>
        <time>2016-09-24T11:14:37Z</time>
      </trkpt>
      <trkpt lat="42.99572" lon="-1.01846">
        <ele>1745.4108887</ele>
        <time>2016-09-24T11:14:55Z</time>
      </trkpt>
      <trkpt lat="42.99577" lon="-1.01852">
        <ele>1748.2946777</ele>
        <time>2016-09-24T11:15:12Z</time>
      </trkpt>
      <trkpt lat="42.99583" lon="-1.01862">
        <ele>1750.697998</ele>
        <time>2016-09-24T11:15:32Z</time>
      </trkpt>
      <trkpt lat="42.99587" lon="-1.01867">
        <ele>1748.7753906</ele>
        <time>2016-09-24T11:15:53Z</time>
      </trkpt>
      <trkpt lat="42.99591" lon="-1.01875">
        <ele>1749.7368164</ele>
        <time>2016-09-24T11:16:06Z</time>
      </trkpt>
      <trkpt lat="42.99593" lon="-1.01879">
        <ele>1748.7753906</ele>
        <time>2016-09-24T11:16:21Z</time>
      </trkpt>
      <trkpt lat="42.99594" lon="-1.01879">
        <ele>1750.2175293</ele>
        <time>2016-09-24T11:17:05Z</time>
      </trkpt>
      <trkpt lat="42.99597" lon="-1.01879">
        <ele>1751.1787109</ele>
        <time>2016-09-24T11:17:24Z</time>
      </trkpt>
      <trkpt lat="42.99605" lon="-1.0189">
        <ele>1754.5432129</ele>
        <time>2016-09-24T11:17:40Z</time>
      </trkpt>
      <trkpt lat="42.99606" lon="-1.01896">
        <ele>1755.5046387</ele>
        <time>2016-09-24T11:17:48Z</time>
      </trkpt>
      <trkpt lat="42.9961" lon="-1.01916">
        <ele>1756.9467773</ele>
        <time>2016-09-24T11:18:06Z</time>
      </trkpt>
      <trkpt lat="42.99611" lon="-1.01922">
        <ele>1758.8693848</ele>
        <time>2016-09-24T11:18:21Z</time>
      </trkpt>
      <trkpt lat="42.99614" lon="-1.01925">
        <ele>1758.3886719</ele>
        <time>2016-09-24T11:18:26Z</time>
      </trkpt>
      <trkpt lat="42.99618" lon="-1.01938">
        <ele>1757.4274902</ele>
        <time>2016-09-24T11:18:43Z</time>
      </trkpt>
      <trkpt lat="42.99622" lon="-1.01951">
        <ele>1757.4274902</ele>
        <time>2016-09-24T11:18:58Z</time>
      </trkpt>
      <trkpt lat="42.99623" lon="-1.0195">
        <ele>1757.9082031</ele>
        <time>2016-09-24T11:19:09Z</time>
      </trkpt>
      <trkpt lat="42.99623" lon="-1.01951">
        <ele>1755.0239258</ele>
        <time>2016-09-24T11:19:12Z</time>
      </trkpt>
      <trkpt lat="42.99626" lon="-1.01958">
        <ele>1756.9467773</ele>
        <time>2016-09-24T11:19:22Z</time>
      </trkpt>
      <trkpt lat="42.99627" lon="-1.01959">
        <ele>1755.5046387</ele>
        <time>2016-09-24T11:19:24Z</time>
      </trkpt>
      <trkpt lat="42.99625" lon="-1.01961">
        <ele>1752.1398926</ele>
        <time>2016-09-24T11:19:32Z</time>
      </trkpt>
      <trkpt lat="42.99623" lon="-1.01966">
        <ele>1750.697998</ele>
        <time>2016-09-24T11:19:45Z</time>
      </trkpt>
      <trkpt lat="42.99626" lon="-1.01978">
        <ele>1746.3723145</ele>
        <time>2016-09-24T11:19:59Z</time>
      </trkpt>
      <trkpt lat="42.99626" lon="-1.01978">
        <ele>1746.3723145</ele>
        <time>2016-09-24T11:20:00Z</time>
      </trkpt>
      <trkpt lat="42.99633" lon="-1.01986">
        <ele>1744.4494629</ele>
        <time>2016-09-24T11:20:15Z</time>
      </trkpt>
      <trkpt lat="42.99635" lon="-1.01998">
        <ele>1742.0463867</ele>
        <time>2016-09-24T11:20:31Z</time>
      </trkpt>
      <trkpt lat="42.99643" lon="-1.02008">
        <ele>1739.1621094</ele>
        <time>2016-09-24T11:20:46Z</time>
      </trkpt>
      <trkpt lat="42.99642" lon="-1.02008">
        <ele>1739.1621094</ele>
        <time>2016-09-24T11:20:47Z</time>
      </trkpt>
      <trkpt lat="42.99638" lon="-1.02011">
        <ele>1737.239502</ele>
        <time>2016-09-24T11:20:53Z</time>
      </trkpt>
      <trkpt lat="42.9964" lon="-1.02013">
        <ele>1739.1621094</ele>
        <time>2016-09-24T11:20:55Z</time>
      </trkpt>
      <trkpt lat="42.99641" lon="-1.02014">
        <ele>1737.7202148</ele>
        <time>2016-09-24T11:20:57Z</time>
      </trkpt>
      <trkpt lat="42.99647" lon="-1.02022">
        <ele>1734.3557129</ele>
        <time>2016-09-24T11:21:13Z</time>
      </trkpt>
      <trkpt lat="42.9965" lon="-1.02028">
        <ele>1730.9912109</ele>
        <time>2016-09-24T11:21:24Z</time>
      </trkpt>
      <trkpt lat="42.99659" lon="-1.0203">
        <ele>1728.5878906</ele>
        <time>2016-09-24T11:21:35Z</time>
      </trkpt>
      <trkpt lat="42.99662" lon="-1.02035">
        <ele>1724.7426758</ele>
        <time>2016-09-24T11:21:44Z</time>
      </trkpt>
      <trkpt lat="42.99662" lon="-1.0204">
        <ele>1723.7810059</ele>
        <time>2016-09-24T11:21:47Z</time>
      </trkpt>
      <trkpt lat="42.99666" lon="-1.02042">
        <ele>1722.3391113</ele>
        <time>2016-09-24T11:21:54Z</time>
      </trkpt>
      <trkpt lat="42.99668" lon="-1.02044">
        <ele>1720.4165039</ele>
        <time>2016-09-24T11:22:23Z</time>
      </trkpt>
      <trkpt lat="42.99674" lon="-1.02052">
        <ele>1717.5324707</ele>
        <time>2016-09-24T11:22:37Z</time>
      </trkpt>
      <trkpt lat="42.9968" lon="-1.02059">
        <ele>1714.6486816</ele>
        <time>2016-09-24T11:22:52Z</time>
      </trkpt>
      <trkpt lat="42.99684" lon="-1.02072">
        <ele>1711.2841797</ele>
        <time>2016-09-24T11:23:17Z</time>
      </trkpt>
      <trkpt lat="42.99684" lon="-1.02074">
        <ele>1711.2841797</ele>
        <time>2016-09-24T11:23:18Z</time>
      </trkpt>
      <trkpt lat="42.99686" lon="-1.02087">
        <ele>1708.4001465</ele>
        <time>2016-09-24T11:23:37Z</time>
      </trkpt>
      <trkpt lat="42.99686" lon="-1.0209">
        <ele>1707.4387207</ele>
        <time>2016-09-24T11:23:40Z</time>
      </trkpt>
      <trkpt lat="42.9969" lon="-1.021">
        <ele>1703.5935059</ele>
        <time>2016-09-24T11:23:49Z</time>
      </trkpt>
      <trkpt lat="42.99697" lon="-1.02094">
        <ele>1700.7094727</ele>
        <time>2016-09-24T11:24:00Z</time>
      </trkpt>
      <trkpt lat="42.99699" lon="-1.02104">
        <ele>1697.3449707</ele>
        <time>2016-09-24T11:24:12Z</time>
      </trkpt>
      <trkpt lat="42.99699" lon="-1.02105">
        <ele>1696.3837891</ele>
        <time>2016-09-24T11:25:29Z</time>
      </trkpt>
      <trkpt lat="42.99699" lon="-1.02118">
        <ele>1693.019043</ele>
        <time>2016-09-24T11:25:39Z</time>
      </trkpt>
      <trkpt lat="42.997" lon="-1.02129">
        <ele>1690.1350098</ele>
        <time>2016-09-24T11:25:51Z</time>
      </trkpt>
      <trkpt lat="42.99703" lon="-1.02138">
        <ele>1687.2509766</ele>
        <time>2016-09-24T11:26:07Z</time>
      </trkpt>
      <trkpt lat="42.99707" lon="-1.02134">
        <ele>1685.809082</ele>
        <time>2016-09-24T11:26:12Z</time>
      </trkpt>
      <trkpt lat="42.99709" lon="-1.02133">
        <ele>1684.8479004</ele>
        <time>2016-09-24T11:26:14Z</time>
      </trkpt>
      <trkpt lat="42.99718" lon="-1.02128">
        <ele>1682.9250488</ele>
        <time>2016-09-24T11:26:34Z</time>
      </trkpt>
      <trkpt lat="42.99727" lon="-1.0212">
        <ele>1679.5605469</ele>
        <time>2016-09-24T11:26:50Z</time>
      </trkpt>
      <trkpt lat="42.99735" lon="-1.02112">
        <ele>1677.1574707</ele>
        <time>2016-09-24T11:27:06Z</time>
      </trkpt>
      <trkpt lat="42.99739" lon="-1.02104">
        <ele>1675.234375</ele>
        <time>2016-09-24T11:27:25Z</time>
      </trkpt>
      <trkpt lat="42.99744" lon="-1.021">
        <ele>1671.869873</ele>
        <time>2016-09-24T11:27:39Z</time>
      </trkpt>
      <trkpt lat="42.99749" lon="-1.02091">
        <ele>1668.5053711</ele>
        <time>2016-09-24T11:27:52Z</time>
      </trkpt>
      <trkpt lat="42.99752" lon="-1.02084">
        <ele>1667.5439453</ele>
        <time>2016-09-24T11:28:00Z</time>
      </trkpt>
      <trkpt lat="42.99759" lon="-1.02074">
        <ele>1663.6987305</ele>
        <time>2016-09-24T11:28:13Z</time>
      </trkpt>
      <trkpt lat="42.99766" lon="-1.02065">
        <ele>1660.8149414</ele>
        <time>2016-09-24T11:28:25Z</time>
      </trkpt>
      <trkpt lat="42.99771" lon="-1.02059">
        <ele>1657.9309082</ele>
        <time>2016-09-24T11:28:48Z</time>
      </trkpt>
      <trkpt lat="42.99778" lon="-1.02048">
        <ele>1655.046875</ele>
        <time>2016-09-24T11:29:05Z</time>
      </trkpt>
      <trkpt lat="42.99782" lon="-1.02041">
        <ele>1652.6435547</ele>
        <time>2016-09-24T11:29:21Z</time>
      </trkpt>
      <trkpt lat="42.99788" lon="-1.02027">
        <ele>1649.2790527</ele>
        <time>2016-09-24T11:29:37Z</time>
      </trkpt>
      <trkpt lat="42.99794" lon="-1.02021">
        <ele>1646.3952637</ele>
        <time>2016-09-24T11:29:48Z</time>
      </trkpt>
      <trkpt lat="42.99803" lon="-1.02016">
        <ele>1643.0302734</ele>
        <time>2016-09-24T11:30:02Z</time>
      </trkpt>
      <trkpt lat="42.99805" lon="-1.02015">
        <ele>1642.0690918</ele>
        <time>2016-09-24T11:30:04Z</time>
      </trkpt>
      <trkpt lat="42.99807" lon="-1.02011">
        <ele>1640.6269531</ele>
        <time>2016-09-24T11:30:12Z</time>
      </trkpt>
      <trkpt lat="42.9981" lon="-1.02003">
        <ele>1639.1850586</ele>
        <time>2016-09-24T11:30:21Z</time>
      </trkpt>
      <trkpt lat="42.99819" lon="-1.01995">
        <ele>1636.7817383</ele>
        <time>2016-09-24T11:30:37Z</time>
      </trkpt>
      <trkpt lat="42.99841" lon="-1.0199">
        <ele>1634.3786621</ele>
        <time>2016-09-24T11:30:56Z</time>
      </trkpt>
      <trkpt lat="42.99855" lon="-1.0199">
        <ele>1631.0141602</ele>
        <time>2016-09-24T11:31:10Z</time>
      </trkpt>
      <trkpt lat="42.99862" lon="-1.01993">
        <ele>1629.0913086</ele>
        <time>2016-09-24T11:31:25Z</time>
      </trkpt>
      <trkpt lat="42.99871" lon="-1.01996">
        <ele>1626.6879883</ele>
        <time>2016-09-24T11:31:35Z</time>
      </trkpt>
      <trkpt lat="42.99874" lon="-1.01996">
        <ele>1625.7265625</ele>
        <time>2016-09-24T11:31:38Z</time>
      </trkpt>
      <trkpt lat="42.99884" lon="-1.01996">
        <ele>1621.8813477</ele>
        <time>2016-09-24T11:31:48Z</time>
      </trkpt>
      <trkpt lat="42.99897" lon="-1.01996">
        <ele>1618.9975586</ele>
        <time>2016-09-24T11:32:01Z</time>
      </trkpt>
      <trkpt lat="42.99907" lon="-1.01998">
        <ele>1615.6330566</ele>
        <time>2016-09-24T11:32:11Z</time>
      </trkpt>
      <trkpt lat="42.99916" lon="-1.01996">
        <ele>1612.7490234</ele>
        <time>2016-09-24T11:32:24Z</time>
      </trkpt>
      <trkpt lat="42.99919" lon="-1.01996">
        <ele>1612.2683105</ele>
        <time>2016-09-24T11:32:29Z</time>
      </trkpt>
      <trkpt lat="42.99923" lon="-1.01999">
        <ele>1610.8261719</ele>
        <time>2016-09-24T11:32:33Z</time>
      </trkpt>
      <trkpt lat="42.9993" lon="-1.01999">
        <ele>1607.9423828</ele>
        <time>2016-09-24T11:32:40Z</time>
      </trkpt>
      <trkpt lat="42.99939" lon="-1.01999">
        <ele>1604.097168</ele>
        <time>2016-09-24T11:32:51Z</time>
      </trkpt>
      <trkpt lat="42.99949" lon="-1.01996">
        <ele>1600.7324219</ele>
        <time>2016-09-24T11:33:04Z</time>
      </trkpt>
      <trkpt lat="42.99965" lon="-1.01993">
        <ele>1597.8486328</ele>
        <time>2016-09-24T11:33:17Z</time>
      </trkpt>
      <trkpt lat="42.99984" lon="-1.01988">
        <ele>1594.4836426</ele>
        <time>2016-09-24T11:33:33Z</time>
      </trkpt>
      <trkpt lat="42.99996" lon="-1.01982">
        <ele>1592.5612793</ele>
        <time>2016-09-24T11:33:53Z</time>
      </trkpt>
      <trkpt lat="42.99998" lon="-1.01982">
        <ele>1592.0805664</ele>
        <time>2016-09-24T11:35:28Z</time>
      </trkpt>
      <trkpt lat="43.0002" lon="-1.01974">
        <ele>1589.1965332</ele>
        <time>2016-09-24T11:35:46Z</time>
      </trkpt>
      <trkpt lat="43.0003" lon="-1.01973">
        <ele>1588.7160645</ele>
        <time>2016-09-24T11:35:54Z</time>
      </trkpt>
      <trkpt lat="43.00044" lon="-1.01968">
        <ele>1587.7546387</ele>
        <time>2016-09-24T11:36:07Z</time>
      </trkpt>
      <trkpt lat="43.00067" lon="-1.01956">
        <ele>1584.3901367</ele>
        <time>2016-09-24T11:36:27Z</time>
      </trkpt>
      <trkpt lat="43.00076" lon="-1.0195">
        <ele>1581.9868164</ele>
        <time>2016-09-24T11:36:39Z</time>
      </trkpt>
      <trkpt lat="43.00078" lon="-1.01949">
        <ele>1581.9868164</ele>
        <time>2016-09-24T11:36:41Z</time>
      </trkpt>
      <trkpt lat="43.00085" lon="-1.01944">
        <ele>1580.064209</ele>
        <time>2016-09-24T11:36:49Z</time>
      </trkpt>
      <trkpt lat="43.00093" lon="-1.01944">
        <ele>1576.6994629</ele>
        <time>2016-09-24T11:36:59Z</time>
      </trkpt>
      <trkpt lat="43.00101" lon="-1.0194">
        <ele>1574.2961426</ele>
        <time>2016-09-24T11:37:14Z</time>
      </trkpt>
      <trkpt lat="43.0011" lon="-1.01933">
        <ele>1571.4121094</ele>
        <time>2016-09-24T11:37:30Z</time>
      </trkpt>
      <trkpt lat="43.00112" lon="-1.01931">
        <ele>1570.9316406</ele>
        <time>2016-09-24T11:37:32Z</time>
      </trkpt>
      <trkpt lat="43.00121" lon="-1.01923">
        <ele>1568.5283203</ele>
        <time>2016-09-24T11:37:44Z</time>
      </trkpt>
      <trkpt lat="43.00127" lon="-1.0192">
        <ele>1565.6445313</ele>
        <time>2016-09-24T11:37:52Z</time>
      </trkpt>
      <trkpt lat="43.00133" lon="-1.01919">
        <ele>1562.279541</ele>
        <time>2016-09-24T11:38:02Z</time>
      </trkpt>
      <trkpt lat="43.0014" lon="-1.01921">
        <ele>1558.9150391</ele>
        <time>2016-09-24T11:38:10Z</time>
      </trkpt>
      <trkpt lat="43.00141" lon="-1.01922">
        <ele>1558.9150391</ele>
        <time>2016-09-24T11:38:11Z</time>
      </trkpt>
      <trkpt lat="43.00143" lon="-1.01923">
        <ele>1557.9538574</ele>
        <time>2016-09-24T11:38:13Z</time>
      </trkpt>
      <trkpt lat="43.00148" lon="-1.01923">
        <ele>1556.5117188</ele>
        <time>2016-09-24T11:38:19Z</time>
      </trkpt>
      <trkpt lat="43.00151" lon="-1.01924">
        <ele>1553.6279297</ele>
        <time>2016-09-24T11:38:24Z</time>
      </trkpt>
      <trkpt lat="43.00156" lon="-1.01925">
        <ele>1551.7053223</ele>
        <time>2016-09-24T11:38:30Z</time>
      </trkpt>
      <trkpt lat="43.00157" lon="-1.01925">
        <ele>1550.2634277</ele>
        <time>2016-09-24T11:38:32Z</time>
      </trkpt>
      <trkpt lat="43.00162" lon="-1.01925">
        <ele>1546.8984375</ele>
        <time>2016-09-24T11:38:40Z</time>
      </trkpt>
      <trkpt lat="43.00163" lon="-1.01925">
        <ele>1546.8984375</ele>
        <time>2016-09-24T11:38:41Z</time>
      </trkpt>
      <trkpt lat="43.0017" lon="-1.01926">
        <ele>1544.0146484</ele>
        <time>2016-09-24T11:38:53Z</time>
      </trkpt>
      <trkpt lat="43.00171" lon="-1.01927">
        <ele>1542.5727539</ele>
        <time>2016-09-24T11:38:55Z</time>
      </trkpt>
      <trkpt lat="43.00172" lon="-1.01928">
        <ele>1540.6499023</ele>
        <time>2016-09-24T11:39:02Z</time>
      </trkpt>
      <trkpt lat="43.00176" lon="-1.01928">
        <ele>1539.6887207</ele>
        <time>2016-09-24T11:39:12Z</time>
      </trkpt>
      <trkpt lat="43.00181" lon="-1.01929">
        <ele>1536.8046875</ele>
        <time>2016-09-24T11:39:19Z</time>
      </trkpt>
      <trkpt lat="43.00185" lon="-1.01929">
        <ele>1535.8435059</ele>
        <time>2016-09-24T11:39:23Z</time>
      </trkpt>
      <trkpt lat="43.0019" lon="-1.01929">
        <ele>1532.4790039</ele>
        <time>2016-09-24T11:39:28Z</time>
      </trkpt>
      <trkpt lat="43.00197" lon="-1.01931">
        <ele>1530.0754395</ele>
        <time>2016-09-24T11:39:35Z</time>
      </trkpt>
      <trkpt lat="43.00202" lon="-1.01931">
        <ele>1528.152832</ele>
        <time>2016-09-24T11:39:38Z</time>
      </trkpt>
      <trkpt lat="43.00211" lon="-1.01932">
        <ele>1524.7883301</ele>
        <time>2016-09-24T11:39:47Z</time>
      </trkpt>
      <trkpt lat="43.00212" lon="-1.01932">
        <ele>1524.7883301</ele>
        <time>2016-09-24T11:39:48Z</time>
      </trkpt>
      <trkpt lat="43.00222" lon="-1.01934">
        <ele>1521.423584</ele>
        <time>2016-09-24T11:40:00Z</time>
      </trkpt>
      <trkpt lat="43.00222" lon="-1.01934">
        <ele>1521.423584</ele>
        <time>2016-09-24T11:40:01Z</time>
      </trkpt>
      <trkpt lat="43.00226" lon="-1.01933">
        <ele>1519.9816895</ele>
        <time>2016-09-24T11:40:11Z</time>
      </trkpt>
      <trkpt lat="43.00231" lon="-1.01933">
        <ele>1518.059082</ele>
        <time>2016-09-24T11:40:17Z</time>
      </trkpt>
      <trkpt lat="43.00234" lon="-1.01933">
        <ele>1516.6171875</ele>
        <time>2016-09-24T11:40:20Z</time>
      </trkpt>
      <trkpt lat="43.00244" lon="-1.01933">
        <ele>1513.7329102</ele>
        <time>2016-09-24T11:40:31Z</time>
      </trkpt>
      <trkpt lat="43.00251" lon="-1.01934">
        <ele>1510.3684082</ele>
        <time>2016-09-24T11:40:38Z</time>
      </trkpt>
      <trkpt lat="43.00267" lon="-1.01932">
        <ele>1507.0039063</ele>
        <time>2016-09-24T11:40:54Z</time>
      </trkpt>
      <trkpt lat="43.00269" lon="-1.01932">
        <ele>1505.5620117</ele>
        <time>2016-09-24T11:40:56Z</time>
      </trkpt>
      <trkpt lat="43.00277" lon="-1.0193">
        <ele>1503.1586914</ele>
        <time>2016-09-24T11:41:04Z</time>
      </trkpt>
      <trkpt lat="43.00296" lon="-1.0193">
        <ele>1500.2749023</ele>
        <time>2016-09-24T11:41:18Z</time>
      </trkpt>
      <trkpt lat="43.00324" lon="-1.01932">
        <ele>1499.3132324</ele>
        <time>2016-09-24T11:41:41Z</time>
      </trkpt>
      <trkpt lat="43.0035" lon="-1.01942">
        <ele>1496.9099121</ele>
        <time>2016-09-24T11:42:04Z</time>
      </trkpt>
      <trkpt lat="43.00365" lon="-1.01946">
        <ele>1493.0646973</ele>
        <time>2016-09-24T11:42:19Z</time>
      </trkpt>
      <trkpt lat="43.00366" lon="-1.01947">
        <ele>1493.0646973</ele>
        <time>2016-09-24T11:42:20Z</time>
      </trkpt>
      <trkpt lat="43.00379" lon="-1.0195">
        <ele>1490.1809082</ele>
        <time>2016-09-24T11:42:38Z</time>
      </trkpt>
      <trkpt lat="43.00392" lon="-1.01957">
        <ele>1488.7390137</ele>
        <time>2016-09-24T11:42:59Z</time>
      </trkpt>
      <trkpt lat="43.00395" lon="-1.01958">
        <ele>1486.8161621</ele>
        <time>2016-09-24T11:43:04Z</time>
      </trkpt>
      <trkpt lat="43.00398" lon="-1.0196">
        <ele>1483.9321289</ele>
        <time>2016-09-24T11:43:06Z</time>
      </trkpt>
      <trkpt lat="43.00412" lon="-1.01962">
        <ele>1481.0483398</ele>
        <time>2016-09-24T11:43:18Z</time>
      </trkpt>
      <trkpt lat="43.00413" lon="-1.01962">
        <ele>1481.0483398</ele>
        <time>2016-09-24T11:43:19Z</time>
      </trkpt>
      <trkpt lat="43.0043" lon="-1.01963">
        <ele>1477.203125</ele>
        <time>2016-09-24T11:43:35Z</time>
      </trkpt>
      <trkpt lat="43.00439" lon="-1.01963">
        <ele>1473.8383789</ele>
        <time>2016-09-24T11:43:48Z</time>
      </trkpt>
      <trkpt lat="43.00447" lon="-1.01963">
        <ele>1471.9157715</ele>
        <time>2016-09-24T11:43:57Z</time>
      </trkpt>
      <trkpt lat="43.00457" lon="-1.01961">
        <ele>1469.5126953</ele>
        <time>2016-09-24T11:44:16Z</time>
      </trkpt>
      <trkpt lat="43.00465" lon="-1.01959">
        <ele>1465.6672363</ele>
        <time>2016-09-24T11:44:25Z</time>
      </trkpt>
      <trkpt lat="43.00476" lon="-1.01957">
        <ele>1462.7832031</ele>
        <time>2016-09-24T11:44:36Z</time>
      </trkpt>
      <trkpt lat="43.00487" lon="-1.01955">
        <ele>1458.9379883</ele>
        <time>2016-09-24T11:44:57Z</time>
      </trkpt>
      <trkpt lat="43.00496" lon="-1.01955">
        <ele>1457.0153809</ele>
        <time>2016-09-24T11:45:05Z</time>
      </trkpt>
      <trkpt lat="43.00509" lon="-1.01955">
        <ele>1453.170166</ele>
        <time>2016-09-24T11:45:18Z</time>
      </trkpt>
      <trkpt lat="43.00523" lon="-1.01956">
        <ele>1450.2861328</ele>
        <time>2016-09-24T11:45:31Z</time>
      </trkpt>
      <trkpt lat="43.0053" lon="-1.01958">
        <ele>1449.324707</ele>
        <time>2016-09-24T11:45:37Z</time>
      </trkpt>
      <trkpt lat="43.00533" lon="-1.01965">
        <ele>1446.440918</ele>
        <time>2016-09-24T11:45:42Z</time>
      </trkpt>
      <trkpt lat="43.00533" lon="-1.01968">
        <ele>1446.440918</ele>
        <time>2016-09-24T11:45:44Z</time>
      </trkpt>
      <trkpt lat="43.00537" lon="-1.01975">
        <ele>1445.9602051</ele>
        <time>2016-09-24T11:45:49Z</time>
      </trkpt>
      <trkpt lat="43.00538" lon="-1.01981">
        <ele>1444.5180664</ele>
        <time>2016-09-24T11:45:53Z</time>
      </trkpt>
      <trkpt lat="43.00543" lon="-1.01991">
        <ele>1444.0375977</ele>
        <time>2016-09-24T11:46:01Z</time>
      </trkpt>
      <trkpt lat="43.0055" lon="-1.0201">
        <ele>1441.1535645</ele>
        <time>2016-09-24T11:46:14Z</time>
      </trkpt>
      <trkpt lat="43.00557" lon="-1.0204">
        <ele>1438.2697754</ele>
        <time>2016-09-24T11:46:34Z</time>
      </trkpt>
      <trkpt lat="43.00558" lon="-1.02041">
        <ele>1438.2697754</ele>
        <time>2016-09-24T11:46:35Z</time>
      </trkpt>
      <trkpt lat="43.00562" lon="-1.02047">
        <ele>1438.2697754</ele>
        <time>2016-09-24T11:46:40Z</time>
      </trkpt>
      <trkpt lat="43.00579" lon="-1.02061">
        <ele>1435.8662109</ele>
        <time>2016-09-24T11:46:57Z</time>
      </trkpt>
      <trkpt lat="43.00584" lon="-1.02073">
        <ele>1433.9436035</ele>
        <time>2016-09-24T11:47:07Z</time>
      </trkpt>
      <trkpt lat="43.00596" lon="-1.02101">
        <ele>1432.0209961</ele>
        <time>2016-09-24T11:47:27Z</time>
      </trkpt>
      <trkpt lat="43.006" lon="-1.02116">
        <ele>1430.0983887</ele>
        <time>2016-09-24T11:47:36Z</time>
      </trkpt>
      <trkpt lat="43.00609" lon="-1.02139">
        <ele>1427.2145996</ele>
        <time>2016-09-24T11:47:52Z</time>
      </trkpt>
      <trkpt lat="43.00615" lon="-1.02157">
        <ele>1423.8498535</ele>
        <time>2016-09-24T11:48:05Z</time>
      </trkpt>
      <trkpt lat="43.00627" lon="-1.02181">
        <ele>1421.4465332</ele>
        <time>2016-09-24T11:48:24Z</time>
      </trkpt>
      <trkpt lat="43.0063" lon="-1.02199">
        <ele>1418.0817871</ele>
        <time>2016-09-24T11:48:41Z</time>
      </trkpt>
      <trkpt lat="43.00629" lon="-1.022">
        <ele>1418.0817871</ele>
        <time>2016-09-24T11:48:42Z</time>
      </trkpt>
      <trkpt lat="43.00626" lon="-1.02204">
        <ele>1417.1206055</ele>
        <time>2016-09-24T11:48:46Z</time>
      </trkpt>
      <trkpt lat="43.00632" lon="-1.02214">
        <ele>1413.7558594</ele>
        <time>2016-09-24T11:48:59Z</time>
      </trkpt>
      <trkpt lat="43.00639" lon="-1.02224">
        <ele>1410.3913574</ele>
        <time>2016-09-24T11:49:31Z</time>
      </trkpt>
      <trkpt lat="43.00647" lon="-1.02235">
        <ele>1407.0268555</ele>
        <time>2016-09-24T11:49:46Z</time>
      </trkpt>
      <trkpt lat="43.00647" lon="-1.02237">
        <ele>1407.0268555</ele>
        <time>2016-09-24T11:49:47Z</time>
      </trkpt>
      <trkpt lat="43.00653" lon="-1.02249">
        <ele>1406.5461426</ele>
        <time>2016-09-24T11:49:57Z</time>
      </trkpt>
      <trkpt lat="43.00668" lon="-1.02289">
        <ele>1405.5849609</ele>
        <time>2016-09-24T11:50:23Z</time>
      </trkpt>
      <trkpt lat="43.00688" lon="-1.02333">
        <ele>1404.6235352</ele>
        <time>2016-09-24T11:50:53Z</time>
      </trkpt>
      <trkpt lat="43.00709" lon="-1.02365">
        <ele>1405.5849609</ele>
        <time>2016-09-24T11:51:19Z</time>
      </trkpt>
      <trkpt lat="43.0072" lon="-1.02405">
        <ele>1406.0654297</ele>
        <time>2016-09-24T11:51:43Z</time>
      </trkpt>
      <trkpt lat="43.0073" lon="-1.02447">
        <ele>1408.46875</ele>
        <time>2016-09-24T11:52:10Z</time>
      </trkpt>
      <trkpt lat="43.0074" lon="-1.02504">
        <ele>1407.0268555</ele>
        <time>2016-09-24T11:52:44Z</time>
      </trkpt>
      <trkpt lat="43.0075" lon="-1.02551">
        <ele>1405.5849609</ele>
        <time>2016-09-24T11:53:11Z</time>
      </trkpt>
      <trkpt lat="43.00766" lon="-1.02597">
        <ele>1405.104248</ele>
        <time>2016-09-24T11:53:42Z</time>
      </trkpt>
      <trkpt lat="43.0079" lon="-1.02637">
        <ele>1404.1430664</ele>
        <time>2016-09-24T11:54:15Z</time>
      </trkpt>
      <trkpt lat="43.00802" lon="-1.02674">
        <ele>1404.6235352</ele>
        <time>2016-09-24T11:54:38Z</time>
      </trkpt>
      <trkpt lat="43.00817" lon="-1.02707">
        <ele>1403.6621094</ele>
        <time>2016-09-24T11:55:03Z</time>
      </trkpt>
      <trkpt lat="43.00822" lon="-1.02718">
        <ele>1405.104248</ele>
        <time>2016-09-24T11:55:11Z</time>
      </trkpt>
      <trkpt lat="43.00828" lon="-1.02744">
        <ele>1403.6621094</ele>
        <time>2016-09-24T11:55:29Z</time>
      </trkpt>
      <trkpt lat="43.00837" lon="-1.0278">
        <ele>1405.104248</ele>
        <time>2016-09-24T11:55:54Z</time>
      </trkpt>
      <trkpt lat="43.00843" lon="-1.0281">
        <ele>1403.6621094</ele>
        <time>2016-09-24T11:56:14Z</time>
      </trkpt>
      <trkpt lat="43.00845" lon="-1.02839">
        <ele>1405.5849609</ele>
        <time>2016-09-24T11:56:34Z</time>
      </trkpt>
      <trkpt lat="43.00845" lon="-1.02858">
        <ele>1402.7006836</ele>
        <time>2016-09-24T11:56:47Z</time>
      </trkpt>
      <trkpt lat="43.00844" lon="-1.02875">
        <ele>1402.7006836</ele>
        <time>2016-09-24T11:56:59Z</time>
      </trkpt>
      <trkpt lat="43.00846" lon="-1.02885">
        <ele>1402.7006836</ele>
        <time>2016-09-24T11:57:06Z</time>
      </trkpt>
      <trkpt lat="43.00846" lon="-1.02887">
        <ele>1401.2587891</ele>
        <time>2016-09-24T11:57:08Z</time>
      </trkpt>
      <trkpt lat="43.00849" lon="-1.02902">
        <ele>1401.739502</ele>
        <time>2016-09-24T11:57:18Z</time>
      </trkpt>
      <trkpt lat="43.0085" lon="-1.02904">
        <ele>1401.739502</ele>
        <time>2016-09-24T11:57:20Z</time>
      </trkpt>
      <trkpt lat="43.00852" lon="-1.02913">
        <ele>1400.7780762</ele>
        <time>2016-09-24T11:57:26Z</time>
      </trkpt>
      <trkpt lat="43.0085" lon="-1.0292">
        <ele>1399.8168945</ele>
        <time>2016-09-24T11:57:31Z</time>
      </trkpt>
      <trkpt lat="43.0085" lon="-1.02938">
        <ele>1395.9716797</ele>
        <time>2016-09-24T11:57:45Z</time>
      </trkpt>
      <trkpt lat="43.00849" lon="-1.02958">
        <ele>1392.6071777</ele>
        <time>2016-09-24T11:57:59Z</time>
      </trkpt>
      <trkpt lat="43.00852" lon="-1.0298">
        <ele>1389.7231445</ele>
        <time>2016-09-24T11:58:12Z</time>
      </trkpt>
      <trkpt lat="43.00853" lon="-1.02983">
        <ele>1389.7231445</ele>
        <time>2016-09-24T11:58:15Z</time>
      </trkpt>
      <trkpt lat="43.00857" lon="-1.03021">
        <ele>1387.3195801</ele>
        <time>2016-09-24T11:58:37Z</time>
      </trkpt>
      <trkpt lat="43.00868" lon="-1.03058">
        <ele>1385.8776855</ele>
        <time>2016-09-24T11:59:04Z</time>
      </trkpt>
      <trkpt lat="43.00854" lon="-1.03076">
        <ele>1383.9550781</ele>
        <time>2016-09-24T11:59:23Z</time>
      </trkpt>
      <trkpt lat="43.00854" lon="-1.03076">
        <ele>1383.9550781</ele>
        <time>2016-09-24T11:59:38Z</time>
      </trkpt>
    </trkseg>
  </trk>
</gpx>